<?xml version="1.0" encoding="UTF-8" standalone="no" ?><gpx xmlns="http://www.topografix.com/GPX/1/1" xmlns:gpxx="http://www.garmin.com/xmlschemas/GpxExtensions/v3" xmlns:wptx1="http://www.garmin.com/xmlschemas/WaypointExtension/v1" xmlns:gpxtpx="http://www.garmin.com/xmlschemas/TrackPointExtension/v1" creator="Alpha 50 EU" version="1.1" xmlns:xsi="http://www.w3.org/2001/XMLSchema-instance" xsi:schemaLocation="http://www.topografix.com/GPX/1/1 http://www.topografix.com/GPX/1/1/gpx.xsd http://www.garmin.com/xmlschemas/GpxExtensions/v3 http://www8.garmin.com/xmlschemas/GpxExtensionsv3.xsd http://www.garmin.com/xmlschemas/WaypointExtension/v1 http://www8.garmin.com/xmlschemas/WaypointExtensionv1.xsd http://www.garmin.com/xmlschemas/TrackPointExtension/v1 http://www.garmin.com/xmlschemas/TrackPointExtensionv1.xsd"><metadata><link href="http://www.garmin.com"><text>Garmin International</text></link><time>2026-09-02T14:48:32Z</time></metadata><trk><name>2026-09-02 17:48:25</name><extensions><gpxx:TrackExtension><gpxx:DisplayColor>Cyan</gpxx:DisplayColor></gpxx:TrackExtension></extensions><trkseg><trkpt lat="59.4548735674" lon="31.0864273924"><ele>106.84</ele><time>2026-09-02T09:43:12Z</time></trkpt><trkpt lat="59.4549081847" lon="31.0864511132"><ele>105.88</ele><time>2026-09-02T09:43:40Z</time></trkpt><trkpt lat="59.4549578056" lon="31.0865152348"><ele>105.40</ele><time>2026-09-02T09:44:04Z</time></trkpt><trkpt lat="59.4550240226" lon="31.0866807774"><ele>105.40</ele><time>2026-09-02T09:44:17Z</time></trkpt><trkpt lat="59.4550610706" lon="31.0867933463"><ele>104.92</ele><time>2026-09-02T09:44:27Z</time></trkpt><trkpt lat="59.4550822768" lon="31.0869319830"><ele>104.92</ele><time>2026-09-02T09:44:39Z</time></trkpt><trkpt lat="59.4550916646" lon="31.0869862977"><ele>104.92</ele><time>2026-09-02T09:44:49Z</time></trkpt><trkpt lat="59.4551204145" lon="31.0871142056"><ele>104.44</ele><time>2026-09-02T09:45:03Z</time></trkpt><trkpt lat="59.4551422074" lon="31.0871952586"><ele>103.96</ele><time>2026-09-02T09:45:13Z</time></trkpt><trkpt lat="59.4551579654" lon="31.0872256849"><ele>103.96</ele><time>2026-09-02T09:45:24Z</time></trkpt><trkpt lat="59.4551701192" lon="31.0871375073"><ele>103.48</ele><time>2026-09-02T09:45:35Z</time></trkpt><trkpt lat="59.4552148785" lon="31.0871717893"><ele>103.48</ele><time>2026-09-02T09:45:48Z</time></trkpt><trkpt lat="59.4552467298" lon="31.0872188117"><ele>103.00</ele><time>2026-09-02T09:46:02Z</time></trkpt><trkpt lat="59.4552886393" lon="31.0871940851"><ele>101.56</ele><time>2026-09-02T09:46:17Z</time></trkpt><trkpt lat="59.4553056546" lon="31.0871953424"><ele>101.08</ele><time>2026-09-02T09:46:43Z</time></trkpt><trkpt lat="59.4552004617" lon="31.0871648323"><ele>115.98</ele><time>2026-09-02T09:47:04Z</time></trkpt><trkpt lat="59.4552099332" lon="31.0871630721"><ele>115.98</ele><time>2026-09-02T09:47:05Z</time></trkpt><trkpt lat="59.4552234281" lon="31.0872104298"><ele>115.50</ele><time>2026-09-02T09:47:35Z</time></trkpt><trkpt lat="59.4553188141" lon="31.0872600507"><ele>115.01</ele><time>2026-09-02T09:47:46Z</time></trkpt><trkpt lat="59.4553790800" lon="31.0872066580"><ele>115.01</ele><time>2026-09-02T09:47:58Z</time></trkpt><trkpt lat="59.4554263540" lon="31.0872796644"><ele>114.53</ele><time>2026-09-02T09:48:10Z</time></trkpt><trkpt lat="59.4554479793" lon="31.0873509943"><ele>114.05</ele><time>2026-09-02T09:48:24Z</time></trkpt><trkpt lat="59.4555316307" lon="31.0874574445"><ele>113.09</ele><time>2026-09-02T09:48:38Z</time></trkpt><trkpt lat="59.4556334708" lon="31.0875654034"><ele>112.61</ele><time>2026-09-02T09:48:51Z</time></trkpt><trkpt lat="59.4556051400" lon="31.0875391681"><ele>111.65</ele><time>2026-09-02T09:49:14Z</time></trkpt><trkpt lat="59.4555748813" lon="31.0876129288"><ele>111.17</ele><time>2026-09-02T09:49:36Z</time></trkpt><trkpt lat="59.4555721991" lon="31.0876458697"><ele>110.21</ele><time>2026-09-02T09:49:58Z</time></trkpt><trkpt lat="59.4556155335" lon="31.0876232386"><ele>109.73</ele><time>2026-09-02T09:50:20Z</time></trkpt><trkpt lat="59.4556247536" lon="31.0876581911"><ele>108.77</ele><time>2026-09-02T09:50:37Z</time></trkpt><trkpt lat="59.4556282740" lon="31.0876259208"><ele>108.29</ele><time>2026-09-02T09:51:02Z</time></trkpt><trkpt lat="59.4555920642" lon="31.0876059718"><ele>107.32</ele><time>2026-09-02T09:51:31Z</time></trkpt><trkpt lat="59.4556267653" lon="31.0876587778"><ele>106.84</ele><time>2026-09-02T09:51:49Z</time></trkpt><trkpt lat="59.4555904716" lon="31.0876275133"><ele>106.36</ele><time>2026-09-02T09:52:09Z</time></trkpt><trkpt lat="59.4555670023" lon="31.0876277648"><ele>107.81</ele><time>2026-09-02T09:52:27Z</time></trkpt><trkpt lat="59.4556172937" lon="31.0876255017"><ele>105.88</ele><time>2026-09-02T09:52:51Z</time></trkpt><trkpt lat="59.4556956645" lon="31.0877006035"><ele>104.44</ele><time>2026-09-02T09:53:29Z</time></trkpt><trkpt lat="59.4557379093" lon="31.0876842588"><ele>103.96</ele><time>2026-09-02T09:53:57Z</time></trkpt><trkpt lat="59.4557449501" lon="31.0876955744"><ele>103.48</ele><time>2026-09-02T09:54:18Z</time></trkpt><trkpt lat="59.4556605443" lon="31.0876686685"><ele>103.00</ele><time>2026-09-02T09:54:39Z</time></trkpt><trkpt lat="59.4557321258" lon="31.0875879508"><ele>102.52</ele><time>2026-09-02T09:55:05Z</time></trkpt><trkpt lat="59.4557196368" lon="31.0876060557"><ele>101.56</ele><time>2026-09-02T09:55:33Z</time></trkpt><trkpt lat="59.4557560142" lon="31.0876131803"><ele>101.08</ele><time>2026-09-02T09:55:56Z</time></trkpt><trkpt lat="59.4557386637" lon="31.0876146890"><ele>101.08</ele><time>2026-09-02T09:56:17Z</time></trkpt><trkpt lat="59.4556944072" lon="31.0875564348"><ele>100.60</ele><time>2026-09-02T09:56:36Z</time></trkpt><trkpt lat="59.4556894619" lon="31.0876182932"><ele>100.60</ele><time>2026-09-02T09:56:51Z</time></trkpt><trkpt lat="59.4557109196" lon="31.0876835883"><ele>100.11</ele><time>2026-09-02T09:57:11Z</time></trkpt><trkpt lat="59.4556406792" lon="31.0878824908"><ele>99.63</ele><time>2026-09-02T09:57:39Z</time></trkpt><trkpt lat="59.4556752965" lon="31.0879239812"><ele>99.63</ele><time>2026-09-02T09:57:51Z</time></trkpt><trkpt lat="59.4556605443" lon="31.0880773701"><ele>99.15</ele><time>2026-09-02T09:58:02Z</time></trkpt><trkpt lat="59.4556570239" lon="31.0882333573"><ele>98.67</ele><time>2026-09-02T09:58:15Z</time></trkpt><trkpt lat="59.4557183795" lon="31.0882540606"><ele>98.19</ele><time>2026-09-02T09:58:26Z</time></trkpt><trkpt lat="59.4557611272" lon="31.0881845746"><ele>98.19</ele><time>2026-09-02T09:58:40Z</time></trkpt><trkpt lat="59.4557775557" lon="31.0881762765"><ele>97.71</ele><time>2026-09-02T09:58:55Z</time></trkpt><trkpt lat="59.4558326248" lon="31.0881685652"><ele>97.23</ele><time>2026-09-02T09:59:07Z</time></trkpt><trkpt lat="59.4558678288" lon="31.0882742610"><ele>97.23</ele><time>2026-09-02T09:59:20Z</time></trkpt><trkpt lat="59.4559222274" lon="31.0883421544"><ele>96.75</ele><time>2026-09-02T09:59:31Z</time></trkpt><trkpt lat="59.4559972454" lon="31.0884851497"><ele>96.27</ele><time>2026-09-02T09:59:45Z</time></trkpt><trkpt lat="59.4560154341" lon="31.0884705652"><ele>95.79</ele><time>2026-09-02T10:00:01Z</time></trkpt><trkpt lat="59.4560627081" lon="31.0885418952"><ele>95.79</ele><time>2026-09-02T10:00:12Z</time></trkpt><trkpt lat="59.4561178610" lon="31.0886794422"><ele>95.31</ele><time>2026-09-02T10:00:26Z</time></trkpt><trkpt lat="59.4561244827" lon="31.0886833817"><ele>95.31</ele><time>2026-09-02T10:00:28Z</time></trkpt><trkpt lat="59.4561520591" lon="31.0887527838"><ele>95.31</ele><time>2026-09-02T10:00:39Z</time></trkpt><trkpt lat="59.4562034402" lon="31.0888072662"><ele>94.83</ele><time>2026-09-02T10:00:51Z</time></trkpt><trkpt lat="59.4562148396" lon="31.0888531152"><ele>94.83</ele><time>2026-09-02T10:01:02Z</time></trkpt><trkpt lat="59.4562157616" lon="31.0887684580"><ele>94.83</ele><time>2026-09-02T10:01:12Z</time></trkpt><trkpt lat="59.4562212937" lon="31.0887613334"><ele>94.83</ele><time>2026-09-02T10:01:14Z</time></trkpt><trkpt lat="59.4563031010" lon="31.0887718946"><ele>94.35</ele><time>2026-09-02T10:01:29Z</time></trkpt><trkpt lat="59.4563577510" lon="31.0887620039"><ele>94.35</ele><time>2026-09-02T10:01:40Z</time></trkpt><trkpt lat="59.4564140774" lon="31.0887954477"><ele>93.87</ele><time>2026-09-02T10:01:54Z</time></trkpt><trkpt lat="59.4564667996" lon="31.0888558812"><ele>93.87</ele><time>2026-09-02T10:02:08Z</time></trkpt><trkpt lat="59.4565225393" lon="31.0888029076"><ele>93.39</ele><time>2026-09-02T10:02:22Z</time></trkpt><trkpt lat="59.4565443322" lon="31.0887122992"><ele>93.39</ele><time>2026-09-02T10:02:35Z</time></trkpt><trkpt lat="59.4565781113" lon="31.0886638518"><ele>92.90</ele><time>2026-09-02T10:02:44Z</time></trkpt><trkpt lat="59.4566505309" lon="31.0886305757"><ele>92.90</ele><time>2026-09-02T10:03:01Z</time></trkpt><trkpt lat="59.4566982239" lon="31.0885846429"><ele>92.42</ele><time>2026-09-02T10:03:14Z</time></trkpt><trkpt lat="59.4567681290" lon="31.0884770192"><ele>92.42</ele><time>2026-09-02T10:03:27Z</time></trkpt><trkpt lat="59.4568230305" lon="31.0884062760"><ele>92.42</ele><time>2026-09-02T10:03:37Z</time></trkpt><trkpt lat="59.4568537921" lon="31.0883288272"><ele>91.46</ele><time>2026-09-02T10:03:48Z</time></trkpt><trkpt lat="59.4568796083" lon="31.0882414039"><ele>91.46</ele><time>2026-09-02T10:03:58Z</time></trkpt><trkpt lat="59.4569115434" lon="31.0881563276"><ele>90.98</ele><time>2026-09-02T10:04:09Z</time></trkpt><trkpt lat="59.4569204282" lon="31.0881532263"><ele>90.98</ele><time>2026-09-02T10:04:11Z</time></trkpt><trkpt lat="59.4569728151" lon="31.0881004203"><ele>90.98</ele><time>2026-09-02T10:04:19Z</time></trkpt><trkpt lat="59.4570270460" lon="31.0880589299"><ele>90.50</ele><time>2026-09-02T10:04:30Z</time></trkpt><trkpt lat="59.4570192508" lon="31.0879054572"><ele>90.02</ele><time>2026-09-02T10:04:45Z</time></trkpt><trkpt lat="59.4570633397" lon="31.0878394078"><ele>89.54</ele><time>2026-09-02T10:05:00Z</time></trkpt><trkpt lat="59.4570950232" lon="31.0878389049"><ele>89.54</ele><time>2026-09-02T10:05:05Z</time></trkpt><trkpt lat="59.4571578875" lon="31.0878466163"><ele>89.06</ele><time>2026-09-02T10:05:16Z</time></trkpt><trkpt lat="59.4572255295" lon="31.0878100712"><ele>89.06</ele><time>2026-09-02T10:05:30Z</time></trkpt><trkpt lat="59.4572868012" lon="31.0878114123"><ele>89.06</ele><time>2026-09-02T10:05:43Z</time></trkpt><trkpt lat="59.4572999608" lon="31.0878842510"><ele>88.58</ele><time>2026-09-02T10:05:55Z</time></trkpt><trkpt lat="59.4573614001" lon="31.0878396593"><ele>88.58</ele><time>2026-09-02T10:06:09Z</time></trkpt><trkpt lat="59.4573626574" lon="31.0879463609"><ele>88.10</ele><time>2026-09-02T10:06:26Z</time></trkpt><trkpt lat="59.4574360829" lon="31.0879871808"><ele>88.10</ele><time>2026-09-02T10:06:45Z</time></trkpt><trkpt lat="59.4574163016" lon="31.0881038569"><ele>87.62</ele><time>2026-09-02T10:06:59Z</time></trkpt><trkpt lat="59.4574374240" lon="31.0881896038"><ele>87.62</ele><time>2026-09-02T10:07:10Z</time></trkpt><trkpt lat="59.4574700296" lon="31.0882053617"><ele>87.62</ele><time>2026-09-02T10:07:20Z</time></trkpt><trkpt lat="59.4575180579" lon="31.0881521367"><ele>87.14</ele><time>2026-09-02T10:07:34Z</time></trkpt><trkpt lat="59.4575545192" lon="31.0880548228"><ele>87.14</ele><time>2026-09-02T10:07:45Z</time></trkpt><trkpt lat="59.4575837720" lon="31.0880245641"><ele>86.66</ele><time>2026-09-02T10:07:59Z</time></trkpt><trkpt lat="59.4576198142" lon="31.0881247278"><ele>86.66</ele><time>2026-09-02T10:08:13Z</time></trkpt><trkpt lat="59.4576939940" lon="31.0880566668"><ele>86.66</ele><time>2026-09-02T10:08:26Z</time></trkpt><trkpt lat="59.4577144459" lon="31.0879973229"><ele>86.18</ele><time>2026-09-02T10:08:38Z</time></trkpt><trkpt lat="59.4577202294" lon="31.0880723409"><ele>86.18</ele><time>2026-09-02T10:08:50Z</time></trkpt><trkpt lat="59.4577344786" lon="31.0880716704"><ele>85.69</ele><time>2026-09-02T10:09:05Z</time></trkpt><trkpt lat="59.4577274378" lon="31.0880134162"><ele>85.69</ele><time>2026-09-02T10:09:17Z</time></trkpt><trkpt lat="59.4576615561" lon="31.0880520567"><ele>85.69</ele><time>2026-09-02T10:09:29Z</time></trkpt><trkpt lat="59.4576566946" lon="31.0881526396"><ele>85.21</ele><time>2026-09-02T10:09:40Z</time></trkpt><trkpt lat="59.4576577004" lon="31.0882947966"><ele>85.21</ele><time>2026-09-02T10:09:54Z</time></trkpt><trkpt lat="59.4576660823" lon="31.0883794539"><ele>84.73</ele><time>2026-09-02T10:10:05Z</time></trkpt><trkpt lat="59.4576468039" lon="31.0884318408"><ele>84.73</ele><time>2026-09-02T10:10:17Z</time></trkpt><trkpt lat="59.4576712791" lon="31.0884850658"><ele>84.25</ele><time>2026-09-02T10:10:28Z</time></trkpt><trkpt lat="59.4577293657" lon="31.0885641072"><ele>84.25</ele><time>2026-09-02T10:10:47Z</time></trkpt><trkpt lat="59.4577588700" lon="31.0885693040"><ele>84.25</ele><time>2026-09-02T10:10:57Z</time></trkpt><trkpt lat="59.4577908888" lon="31.0885610059"><ele>83.77</ele><time>2026-09-02T10:11:11Z</time></trkpt><trkpt lat="59.4577204809" lon="31.0886273067"><ele>83.29</ele><time>2026-09-02T10:11:32Z</time></trkpt><trkpt lat="59.4577208161" lon="31.0886708088"><ele>83.29</ele><time>2026-09-02T10:11:42Z</time></trkpt><trkpt lat="59.4577549305" lon="31.0886702221"><ele>83.29</ele><time>2026-09-02T10:11:52Z</time></trkpt><trkpt lat="59.4577677548" lon="31.0887690447"><ele>82.81</ele><time>2026-09-02T10:12:05Z</time></trkpt><trkpt lat="59.4578367379" lon="31.0886926018"><ele>82.81</ele><time>2026-09-02T10:12:25Z</time></trkpt><trkpt lat="59.4579007756" lon="31.0886875726"><ele>82.33</ele><time>2026-09-02T10:12:41Z</time></trkpt><trkpt lat="59.4579089899" lon="31.0886288155"><ele>82.33</ele><time>2026-09-02T10:12:52Z</time></trkpt><trkpt lat="59.4579342194" lon="31.0886273906"><ele>81.37</ele><time>2026-09-02T10:13:14Z</time></trkpt><trkpt lat="59.4579621311" lon="31.0886083636"><ele>80.89</ele><time>2026-09-02T10:13:30Z</time></trkpt><trkpt lat="59.4579922222" lon="31.0886086989"><ele>80.41</ele><time>2026-09-02T10:13:43Z</time></trkpt><trkpt lat="59.4580026157" lon="31.0885954555"><ele>80.41</ele><time>2026-09-02T10:14:04Z</time></trkpt><trkpt lat="59.4580197986" lon="31.0885453317"><ele>80.41</ele><time>2026-09-02T10:14:16Z</time></trkpt><trkpt lat="59.4580280967" lon="31.0885693040"><ele>79.93</ele><time>2026-09-02T10:14:24Z</time></trkpt><trkpt lat="59.4579995982" lon="31.0886145663"><ele>79.93</ele><time>2026-09-02T10:14:39Z</time></trkpt><trkpt lat="59.4580246601" lon="31.0886040051"><ele>79.93</ele><time>2026-09-02T10:14:57Z</time></trkpt><trkpt lat="59.4580305275" lon="31.0886610020"><ele>79.45</ele><time>2026-09-02T10:15:19Z</time></trkpt><trkpt lat="59.4579788949" lon="31.0886481777"><ele>79.45</ele><time>2026-09-02T10:15:34Z</time></trkpt><trkpt lat="59.4580397476" lon="31.0886393767"><ele>79.45</ele><time>2026-09-02T10:15:43Z</time></trkpt><trkpt lat="59.4581156876" lon="31.0885884147"><ele>79.45</ele><time>2026-09-02T10:15:57Z</time></trkpt><trkpt lat="59.4581130054" lon="31.0886749160"><ele>79.45</ele><time>2026-09-02T10:16:08Z</time></trkpt><trkpt lat="59.4581560884" lon="31.0886380356"><ele>78.97</ele><time>2026-09-02T10:16:20Z</time></trkpt><trkpt lat="59.4581950642" lon="31.0886972956"><ele>78.97</ele><time>2026-09-02T10:16:32Z</time></trkpt><trkpt lat="59.4582079723" lon="31.0887128860"><ele>78.97</ele><time>2026-09-02T10:16:34Z</time></trkpt><trkpt lat="59.4581918791" lon="31.0888158996"><ele>78.97</ele><time>2026-09-02T10:16:49Z</time></trkpt><trkpt lat="59.4582063798" lon="31.0888744891"><ele>78.97</ele><time>2026-09-02T10:16:52Z</time></trkpt><trkpt lat="59.4582701661" lon="31.0888998024"><ele>78.97</ele><time>2026-09-02T10:17:03Z</time></trkpt><trkpt lat="59.4583095610" lon="31.0889164824"><ele>78.48</ele><time>2026-09-02T10:17:16Z</time></trkpt><trkpt lat="59.4583084714" lon="31.0888733156"><ele>78.48</ele><time>2026-09-02T10:17:28Z</time></trkpt><trkpt lat="59.4583601877" lon="31.0889034905"><ele>78.48</ele><time>2026-09-02T10:17:37Z</time></trkpt><trkpt lat="59.4584628660" lon="31.0888848826"><ele>78.00</ele><time>2026-09-02T10:17:51Z</time></trkpt><trkpt lat="59.4585315976" lon="31.0889520217"><ele>78.00</ele><time>2026-09-02T10:18:04Z</time></trkpt><trkpt lat="59.4585408177" lon="31.0891321488"><ele>78.00</ele><time>2026-09-02T10:18:17Z</time></trkpt><trkpt lat="59.4585787039" lon="31.0891722981"><ele>78.00</ele><time>2026-09-02T10:18:23Z</time></trkpt><trkpt lat="59.4587172568" lon="31.0890190769"><ele>77.52</ele><time>2026-09-02T10:18:38Z</time></trkpt><trkpt lat="59.4587746728" lon="31.0889946017"><ele>77.52</ele><time>2026-09-02T10:18:51Z</time></trkpt><trkpt lat="59.4587921072" lon="31.0889389459"><ele>77.52</ele><time>2026-09-02T10:18:55Z</time></trkpt><trkpt lat="59.4589081127" lon="31.0888922587"><ele>77.04</ele><time>2026-09-02T10:19:07Z</time></trkpt><trkpt lat="59.4590008166" lon="31.0888876487"><ele>77.04</ele><time>2026-09-02T10:19:20Z</time></trkpt><trkpt lat="59.4590526167" lon="31.0888452362"><ele>77.04</ele><time>2026-09-02T10:19:32Z</time></trkpt><trkpt lat="59.4590892456" lon="31.0889106151"><ele>76.56</ele><time>2026-09-02T10:19:42Z</time></trkpt><trkpt lat="59.4591437280" lon="31.0888363514"><ele>76.56</ele><time>2026-09-02T10:19:53Z</time></trkpt><trkpt lat="59.4591783453" lon="31.0888274666"><ele>76.56</ele><time>2026-09-02T10:19:57Z</time></trkpt><trkpt lat="59.4592646789" lon="31.0887578968"><ele>76.56</ele><time>2026-09-02T10:20:10Z</time></trkpt><trkpt lat="59.4593453128" lon="31.0888176598"><ele>76.08</ele><time>2026-09-02T10:20:21Z</time></trkpt><trkpt lat="59.4594199117" lon="31.0888230242"><ele>76.08</ele><time>2026-09-02T10:20:32Z</time></trkpt><trkpt lat="59.4594541937" lon="31.0888693761"><ele>76.08</ele><time>2026-09-02T10:20:50Z</time></trkpt><trkpt lat="59.4594935048" lon="31.0890507605"><ele>76.08</ele><time>2026-09-02T10:21:03Z</time></trkpt><trkpt lat="59.4595144596" lon="31.0892194882"><ele>75.60</ele><time>2026-09-02T10:21:16Z</time></trkpt><trkpt lat="59.4595287088" lon="31.0892946739"><ele>75.60</ele><time>2026-09-02T10:21:27Z</time></trkpt><trkpt lat="59.4595489092" lon="31.0893882159"><ele>75.60</ele><time>2026-09-02T10:21:36Z</time></trkpt><trkpt lat="59.4595785812" lon="31.0895526689"><ele>75.60</ele><time>2026-09-02T10:21:51Z</time></trkpt><trkpt lat="59.4595935009" lon="31.0895950813"><ele>75.12</ele><time>2026-09-02T10:22:01Z</time></trkpt><trkpt lat="59.4596714526" lon="31.0895245057"><ele>75.12</ele><time>2026-09-02T10:22:15Z</time></trkpt><trkpt lat="59.4596621487" lon="31.0896503180"><ele>75.12</ele><time>2026-09-02T10:22:27Z</time></trkpt><trkpt lat="59.4596476480" lon="31.0897163674"><ele>75.12</ele><time>2026-09-02T10:22:39Z</time></trkpt><trkpt lat="59.4596412778" lon="31.0897768009"><ele>75.12</ele><time>2026-09-02T10:22:46Z</time></trkpt><trkpt lat="59.4596418645" lon="31.0898230691"><ele>75.12</ele><time>2026-09-02T10:22:49Z</time></trkpt><trkpt lat="59.4596831873" lon="31.0900314432"><ele>74.64</ele><time>2026-09-02T10:23:04Z</time></trkpt><trkpt lat="59.4597170502" lon="31.0900653061"><ele>74.64</ele><time>2026-09-02T10:23:13Z</time></trkpt><trkpt lat="59.4596917368" lon="31.0901044495"><ele>74.64</ele><time>2026-09-02T10:23:23Z</time></trkpt><trkpt lat="59.4597007055" lon="31.0902435891"><ele>74.64</ele><time>2026-09-02T10:23:36Z</time></trkpt><trkpt lat="59.4597126078" lon="31.0903588403"><ele>74.64</ele><time>2026-09-02T10:23:46Z</time></trkpt><trkpt lat="59.4596733805" lon="31.0905769374"><ele>74.64</ele><time>2026-09-02T10:24:01Z</time></trkpt><trkpt lat="59.4597158767" lon="31.0906502791"><ele>73.68</ele><time>2026-09-02T10:24:16Z</time></trkpt><trkpt lat="59.4597297069" lon="31.0906843934"><ele>73.68</ele><time>2026-09-02T10:24:41Z</time></trkpt><trkpt lat="59.4597447105" lon="31.0906902608"><ele>73.68</ele><time>2026-09-02T10:24:47Z</time></trkpt><trkpt lat="59.4598155376" lon="31.0907888319"><ele>73.68</ele><time>2026-09-02T10:25:02Z</time></trkpt><trkpt lat="59.4598054793" lon="31.0909810290"><ele>73.68</ele><time>2026-09-02T10:25:16Z</time></trkpt><trkpt lat="59.4597628992" lon="31.0910912510"><ele>73.68</ele><time>2026-09-02T10:25:26Z</time></trkpt><trkpt lat="59.4597388431" lon="31.0912527703"><ele>73.68</ele><time>2026-09-02T10:25:40Z</time></trkpt><trkpt lat="59.4597325567" lon="31.0913270339"><ele>73.20</ele><time>2026-09-02T10:26:01Z</time></trkpt><trkpt lat="59.4597566128" lon="31.0914833564"><ele>73.20</ele><time>2026-09-02T10:26:14Z</time></trkpt><trkpt lat="59.4596939161" lon="31.0915718693"><ele>73.20</ele><time>2026-09-02T10:26:29Z</time></trkpt><trkpt lat="59.4596981071" lon="31.0916064028"><ele>73.20</ele><time>2026-09-02T10:26:46Z</time></trkpt><trkpt lat="59.4597082492" lon="31.0915487353"><ele>72.72</ele><time>2026-09-02T10:27:01Z</time></trkpt><trkpt lat="59.4596841093" lon="31.0915351566"><ele>72.72</ele><time>2026-09-02T10:27:14Z</time></trkpt><trkpt lat="59.4597218279" lon="31.0915695224"><ele>72.72</ele><time>2026-09-02T10:27:18Z</time></trkpt><trkpt lat="59.4596558623" lon="31.0916030500"><ele>72.72</ele><time>2026-09-02T10:27:41Z</time></trkpt><trkpt lat="59.4596469775" lon="31.0916041397"><ele>72.72</ele><time>2026-09-02T10:27:42Z</time></trkpt><trkpt lat="59.4596197363" lon="31.0917306226"><ele>72.24</ele><time>2026-09-02T10:28:02Z</time></trkpt><trkpt lat="59.4596991129" lon="31.0918643977"><ele>72.24</ele><time>2026-09-02T10:28:14Z</time></trkpt><trkpt lat="59.4597180560" lon="31.0918840952"><ele>72.24</ele><time>2026-09-02T10:28:16Z</time></trkpt><trkpt lat="59.4598373305" lon="31.0919738654"><ele>72.24</ele><time>2026-09-02T10:28:31Z</time></trkpt><trkpt lat="59.4598146155" lon="31.0920802318"><ele>72.24</ele><time>2026-09-02T10:28:45Z</time></trkpt><trkpt lat="59.4598369952" lon="31.0921644699"><ele>72.24</ele><time>2026-09-02T10:28:56Z</time></trkpt><trkpt lat="59.4598553516" lon="31.0921762045"><ele>72.24</ele><time>2026-09-02T10:29:07Z</time></trkpt><trkpt lat="59.4598729536" lon="31.0920343827"><ele>72.24</ele><time>2026-09-02T10:29:20Z</time></trkpt><trkpt lat="59.4599207304" lon="31.0919538327"><ele>72.24</ele><time>2026-09-02T10:29:33Z</time></trkpt><trkpt lat="59.4599133544" lon="31.0919098277"><ele>72.24</ele><time>2026-09-02T10:29:49Z</time></trkpt><trkpt lat="59.4599326327" lon="31.0919186287"><ele>72.24</ele><time>2026-09-02T10:30:01Z</time></trkpt><trkpt lat="59.4600099977" lon="31.0918002762"><ele>72.24</ele><time>2026-09-02T10:30:16Z</time></trkpt><trkpt lat="59.4600279350" lon="31.0917100031"><ele>71.76</ele><time>2026-09-02T10:30:29Z</time></trkpt><trkpt lat="59.4600391667" lon="31.0915512498"><ele>71.76</ele><time>2026-09-02T10:30:42Z</time></trkpt><trkpt lat="59.4600550085" lon="31.0914892238"><ele>71.27</ele><time>2026-09-02T10:30:55Z</time></trkpt><trkpt lat="59.4600665756" lon="31.0913812649"><ele>71.27</ele><time>2026-09-02T10:31:06Z</time></trkpt><trkpt lat="59.4600728620" lon="31.0912173148"><ele>71.27</ele><time>2026-09-02T10:31:20Z</time></trkpt><trkpt lat="59.4600416813" lon="31.0911972821"><ele>71.27</ele><time>2026-09-02T10:31:27Z</time></trkpt><trkpt lat="59.4600208942" lon="31.0911305621"><ele>71.27</ele><time>2026-09-02T10:31:33Z</time></trkpt><trkpt lat="59.4600837585" lon="31.0909741558"><ele>71.27</ele><time>2026-09-02T10:31:46Z</time></trkpt><trkpt lat="59.4600379094" lon="31.0908292327"><ele>71.27</ele><time>2026-09-02T10:32:04Z</time></trkpt><trkpt lat="59.4599999394" lon="31.0907817911"><ele>71.27</ele><time>2026-09-02T10:32:16Z</time></trkpt><trkpt lat="59.4600163680" lon="31.0907752533"><ele>71.27</ele><time>2026-09-02T10:32:19Z</time></trkpt><trkpt lat="59.4601188786" lon="31.0906705633"><ele>70.79</ele><time>2026-09-02T10:32:34Z</time></trkpt><trkpt lat="59.4601444434" lon="31.0906552244"><ele>70.79</ele><time>2026-09-02T10:32:46Z</time></trkpt><trkpt lat="59.4601677451" lon="31.0906819627"><ele>70.79</ele><time>2026-09-02T10:33:20Z</time></trkpt><trkpt lat="59.4601975009" lon="31.0907382891"><ele>70.79</ele><time>2026-09-02T10:33:45Z</time></trkpt><trkpt lat="59.4602067210" lon="31.0907663684"><ele>70.31</ele><time>2026-09-02T10:34:02Z</time></trkpt><trkpt lat="59.4602480438" lon="31.0907494370"><ele>70.31</ele><time>2026-09-02T10:34:16Z</time></trkpt><trkpt lat="59.4602895342" lon="31.0907701403"><ele>70.31</ele><time>2026-09-02T10:34:29Z</time></trkpt><trkpt lat="59.4603173621" lon="31.0907837190"><ele>70.31</ele><time>2026-09-02T10:34:39Z</time></trkpt><trkpt lat="59.4603292644" lon="31.0907740798"><ele>70.31</ele><time>2026-09-02T10:34:42Z</time></trkpt><trkpt lat="59.4603487942" lon="31.0907471739"><ele>70.31</ele><time>2026-09-02T10:34:45Z</time></trkpt><trkpt lat="59.4604487903" lon="31.0908102896"><ele>70.31</ele><time>2026-09-02T10:34:54Z</time></trkpt><trkpt lat="59.4605133310" lon="31.0908556357"><ele>70.31</ele><time>2026-09-02T10:35:05Z</time></trkpt><trkpt lat="59.4605224673" lon="31.0908388719"><ele>70.31</ele><time>2026-09-02T10:35:08Z</time></trkpt><trkpt lat="59.4605898578" lon="31.0909189191"><ele>70.31</ele><time>2026-09-02T10:35:20Z</time></trkpt><trkpt lat="59.4605846610" lon="31.0909485910"><ele>70.31</ele><time>2026-09-02T10:35:25Z</time></trkpt><trkpt lat="59.4606043585" lon="31.0909721442"><ele>70.31</ele><time>2026-09-02T10:35:27Z</time></trkpt><trkpt lat="59.4606735092" lon="31.0910676140"><ele>69.83</ele><time>2026-09-02T10:35:44Z</time></trkpt><trkpt lat="59.4607454259" lon="31.0910811089"><ele>69.83</ele><time>2026-09-02T10:35:55Z</time></trkpt><trkpt lat="59.4607524667" lon="31.0911900736"><ele>69.83</ele><time>2026-09-02T10:36:05Z</time></trkpt><trkpt lat="59.4607722480" lon="31.0913613997"><ele>69.83</ele><time>2026-09-02T10:36:16Z</time></trkpt><trkpt lat="59.4608227070" lon="31.0914552771"><ele>69.83</ele><time>2026-09-02T10:36:27Z</time></trkpt><trkpt lat="59.4608449191" lon="31.0916080792"><ele>69.83</ele><time>2026-09-02T10:36:38Z</time></trkpt><trkpt lat="59.4609140698" lon="31.0917607974"><ele>69.83</ele><time>2026-09-02T10:36:49Z</time></trkpt><trkpt lat="59.4609469268" lon="31.0919826664"><ele>69.83</ele><time>2026-09-02T10:37:03Z</time></trkpt><trkpt lat="59.4609331805" lon="31.0919291899"><ele>69.35</ele><time>2026-09-02T10:37:21Z</time></trkpt><trkpt lat="59.4609744195" lon="31.0917252582"><ele>69.35</ele><time>2026-09-02T10:37:36Z</time></trkpt><trkpt lat="59.4610094558" lon="31.0917709395"><ele>69.35</ele><time>2026-09-02T10:37:53Z</time></trkpt><trkpt lat="59.4609802030" lon="31.0917226598"><ele>68.87</ele><time>2026-09-02T10:38:26Z</time></trkpt><trkpt lat="59.4609749224" lon="31.0917379986"><ele>68.87</ele><time>2026-09-02T10:38:49Z</time></trkpt><trkpt lat="59.4609594159" lon="31.0917442013"><ele>68.39</ele><time>2026-09-02T10:39:09Z</time></trkpt><trkpt lat="59.4609543867" lon="31.0917680059"><ele>68.39</ele><time>2026-09-02T10:39:19Z</time></trkpt><trkpt lat="59.4609502796" lon="31.0917877033"><ele>68.39</ele><time>2026-09-02T10:39:37Z</time></trkpt><trkpt lat="59.4609238766" lon="31.0918791499"><ele>67.91</ele><time>2026-09-02T10:39:58Z</time></trkpt><trkpt lat="59.4608344417" lon="31.0918587819"><ele>67.91</ele><time>2026-09-02T10:40:17Z</time></trkpt><trkpt lat="59.4608926121" lon="31.0917678382"><ele>67.91</ele><time>2026-09-02T10:40:34Z</time></trkpt><trkpt lat="59.4608289097" lon="31.0918487236"><ele>67.43</ele><time>2026-09-02T10:40:58Z</time></trkpt><trkpt lat="59.4608280715" lon="31.0918831732"><ele>67.43</ele><time>2026-09-02T10:41:10Z</time></trkpt><trkpt lat="59.4608040154" lon="31.0918947402"><ele>67.43</ele><time>2026-09-02T10:41:27Z</time></trkpt><trkpt lat="59.4608571567" lon="31.0918519925"><ele>67.43</ele><time>2026-09-02T10:41:40Z</time></trkpt><trkpt lat="59.4608501997" lon="31.0917569418"><ele>67.43</ele><time>2026-09-02T10:42:03Z</time></trkpt><trkpt lat="59.4608760998" lon="31.0917970072"><ele>67.43</ele><time>2026-09-02T10:42:25Z</time></trkpt><trkpt lat="59.4608691428" lon="31.0918283556"><ele>66.95</ele><time>2026-09-02T10:42:44Z</time></trkpt><trkpt lat="59.4608100504" lon="31.0918139387"><ele>66.95</ele><time>2026-09-02T10:43:04Z</time></trkpt><trkpt lat="59.4608833920" lon="31.0918448679"><ele>66.95</ele><time>2026-09-02T10:43:30Z</time></trkpt><trkpt lat="59.4608367048" lon="31.0918919742"><ele>66.95</ele><time>2026-09-02T10:43:45Z</time></trkpt><trkpt lat="59.4609730784" lon="31.0917749628"><ele>66.47</ele><time>2026-09-02T10:44:09Z</time></trkpt><trkpt lat="59.4609438255" lon="31.0917719454"><ele>65.99</ele><time>2026-09-02T10:45:05Z</time></trkpt><trkpt lat="59.4608802069" lon="31.0916700214"><ele>65.99</ele><time>2026-09-02T10:45:41Z</time></trkpt><trkpt lat="59.4609174225" lon="31.0916890483"><ele>65.99</ele><time>2026-09-02T10:46:02Z</time></trkpt><trkpt lat="59.4609146565" lon="31.0917130206"><ele>65.99</ele><time>2026-09-02T10:46:32Z</time></trkpt><trkpt lat="59.4609195180" lon="31.0916287825"><ele>65.99</ele><time>2026-09-02T10:46:56Z</time></trkpt><trkpt lat="59.4609199371" lon="31.0916949995"><ele>65.99</ele><time>2026-09-02T10:47:26Z</time></trkpt><trkpt lat="59.4609473459" lon="31.0917254258"><ele>65.99</ele><time>2026-09-02T10:47:39Z</time></trkpt><trkpt lat="59.4610249624" lon="31.0917576961"><ele>65.51</ele><time>2026-09-02T10:47:57Z</time></trkpt><trkpt lat="59.4609135669" lon="31.0918333847"><ele>65.03</ele><time>2026-09-02T10:48:14Z</time></trkpt><trkpt lat="59.4608590845" lon="31.0918291938"><ele>65.03</ele><time>2026-09-02T10:48:37Z</time></trkpt><trkpt lat="59.4608945400" lon="31.0918518249"><ele>65.03</ele><time>2026-09-02T10:48:57Z</time></trkpt><trkpt lat="59.4609218650" lon="31.0917799082"><ele>65.03</ele><time>2026-09-02T10:49:19Z</time></trkpt><trkpt lat="59.4609490223" lon="31.0917258449"><ele>66.47</ele><time>2026-09-02T10:49:40Z</time></trkpt><trkpt lat="59.4608631078" lon="31.0917525832"><ele>65.51</ele><time>2026-09-02T10:50:05Z</time></trkpt><trkpt lat="59.4608159177" lon="31.0917177983"><ele>65.51</ele><time>2026-09-02T10:50:19Z</time></trkpt><trkpt lat="59.4608046860" lon="31.0916584544"><ele>65.03</ele><time>2026-09-02T10:50:28Z</time></trkpt><trkpt lat="59.4608029258" lon="31.0915200692"><ele>65.03</ele><time>2026-09-02T10:50:41Z</time></trkpt><trkpt lat="59.4607802946" lon="31.0913334880"><ele>65.03</ele><time>2026-09-02T10:50:53Z</time></trkpt><trkpt lat="59.4607585017" lon="31.0911951866"><ele>65.03</ele><time>2026-09-02T10:51:03Z</time></trkpt><trkpt lat="59.4606981520" lon="31.0910227709"><ele>65.03</ele><time>2026-09-02T10:51:13Z</time></trkpt><trkpt lat="59.4606598467" lon="31.0908915941"><ele>64.55</ele><time>2026-09-02T10:51:24Z</time></trkpt><trkpt lat="59.4606177695" lon="31.0907511972"><ele>64.55</ele><time>2026-09-02T10:51:36Z</time></trkpt><trkpt lat="59.4606275763" lon="31.0906729940"><ele>64.55</ele><time>2026-09-02T10:51:55Z</time></trkpt><trkpt lat="59.4606164284" lon="31.0906425677"><ele>64.55</ele><time>2026-09-02T10:52:00Z</time></trkpt><trkpt lat="59.4605564978" lon="31.0906097107"><ele>64.55</ele><time>2026-09-02T10:52:10Z</time></trkpt><trkpt lat="59.4604715891" lon="31.0905216169"><ele>64.55</ele><time>2026-09-02T10:52:23Z</time></trkpt><trkpt lat="59.4604594354" lon="31.0903963074"><ele>64.55</ele><time>2026-09-02T10:52:36Z</time></trkpt><trkpt lat="59.4604007620" lon="31.0903109796"><ele>64.55</ele><time>2026-09-02T10:52:48Z</time></trkpt><trkpt lat="59.4603446033" lon="31.0901966505"><ele>64.07</ele><time>2026-09-02T10:52:59Z</time></trkpt><trkpt lat="59.4602851756" lon="31.0901430901"><ele>64.07</ele><time>2026-09-02T10:53:16Z</time></trkpt><trkpt lat="59.4602358062" lon="31.0901005100"><ele>64.07</ele><time>2026-09-02T10:53:21Z</time></trkpt><trkpt lat="59.4601774681" lon="31.0899259988"><ele>64.07</ele><time>2026-09-02T10:53:33Z</time></trkpt><trkpt lat="59.4601508975" lon="31.0898402520"><ele>64.07</ele><time>2026-09-02T10:53:43Z</time></trkpt><trkpt lat="59.4600959122" lon="31.0897639766"><ele>64.07</ele><time>2026-09-02T10:53:58Z</time></trkpt><trkpt lat="59.4600408431" lon="31.0896870308"><ele>64.07</ele><time>2026-09-02T10:54:08Z</time></trkpt><trkpt lat="59.4600348081" lon="31.0896493960"><ele>64.07</ele><time>2026-09-02T10:54:11Z</time></trkpt><trkpt lat="59.4599803258" lon="31.0894865356"><ele>64.07</ele><time>2026-09-02T10:54:23Z</time></trkpt><trkpt lat="59.4599282742" lon="31.0894077457"><ele>64.07</ele><time>2026-09-02T10:54:30Z</time></trkpt><trkpt lat="59.4599146117" lon="31.0893069115"><ele>64.07</ele><time>2026-09-02T10:54:44Z</time></trkpt><trkpt lat="59.4598636497" lon="31.0893015470"><ele>63.58</ele><time>2026-09-02T10:54:55Z</time></trkpt><trkpt lat="59.4598068204" lon="31.0892222542"><ele>63.58</ele><time>2026-09-02T10:55:10Z</time></trkpt><trkpt lat="59.4597727899" lon="31.0892156325"><ele>63.58</ele><time>2026-09-02T10:55:21Z</time></trkpt><trkpt lat="59.4597508293" lon="31.0891955160"><ele>63.58</ele><time>2026-09-02T10:55:32Z</time></trkpt><trkpt lat="59.4597296230" lon="31.0892703664"><ele>63.58</ele><time>2026-09-02T10:55:48Z</time></trkpt><trkpt lat="59.4597345684" lon="31.0892230086"><ele>63.10</ele><time>2026-09-02T10:56:10Z</time></trkpt><trkpt lat="59.4597594626" lon="31.0892692767"><ele>63.10</ele><time>2026-09-02T10:56:36Z</time></trkpt><trkpt lat="59.4597328082" lon="31.0893060733"><ele>62.62</ele><time>2026-09-02T10:56:55Z</time></trkpt><trkpt lat="59.4597408548" lon="31.0893226694"><ele>62.62</ele><time>2026-09-02T10:57:04Z</time></trkpt><trkpt lat="59.4597691018" lon="31.0891951807"><ele>62.62</ele><time>2026-09-02T10:57:21Z</time></trkpt><trkpt lat="59.4597066566" lon="31.0891220905"><ele>62.62</ele><time>2026-09-02T10:57:33Z</time></trkpt><trkpt lat="59.4596777391" lon="31.0891403630"><ele>62.62</ele><time>2026-09-02T10:57:42Z</time></trkpt><trkpt lat="59.4596692733" lon="31.0890692007"><ele>62.62</ele><time>2026-09-02T10:57:53Z</time></trkpt><trkpt lat="59.4596117735" lon="31.0889427178"><ele>62.62</ele><time>2026-09-02T10:58:06Z</time></trkpt><trkpt lat="59.4596095104" lon="31.0888402071"><ele>62.62</ele><time>2026-09-02T10:58:17Z</time></trkpt><trkpt lat="59.4595521782" lon="31.0887797736"><ele>62.62</ele><time>2026-09-02T10:58:28Z</time></trkpt><trkpt lat="59.4595419522" lon="31.0887653567"><ele>62.62</ele><time>2026-09-02T10:58:30Z</time></trkpt><trkpt lat="59.4594990369" lon="31.0886744969"><ele>62.62</ele><time>2026-09-02T10:58:45Z</time></trkpt><trkpt lat="59.4594883081" lon="31.0885170847"><ele>62.62</ele><time>2026-09-02T10:58:59Z</time></trkpt><trkpt lat="59.4594393577" lon="31.0883989837"><ele>62.14</ele><time>2026-09-02T10:59:20Z</time></trkpt><trkpt lat="59.4594331551" lon="31.0883750953"><ele>62.14</ele><time>2026-09-02T10:59:34Z</time></trkpt><trkpt lat="59.4594174810" lon="31.0883457586"><ele>62.14</ele><time>2026-09-02T11:00:00Z</time></trkpt><trkpt lat="59.4593898207" lon="31.0883366223"><ele>62.14</ele><time>2026-09-02T11:00:23Z</time></trkpt><trkpt lat="59.4593502581" lon="31.0882618558"><ele>62.14</ele><time>2026-09-02T11:00:37Z</time></trkpt><trkpt lat="59.4593365956" lon="31.0881646257"><ele>62.14</ele><time>2026-09-02T11:00:50Z</time></trkpt><trkpt lat="59.4592796825" lon="31.0881202016"><ele>62.14</ele><time>2026-09-02T11:01:03Z</time></trkpt><trkpt lat="59.4592701271" lon="31.0881160945"><ele>62.14</ele><time>2026-09-02T11:01:05Z</time></trkpt><trkpt lat="59.4591998030" lon="31.0880223010"><ele>62.14</ele><time>2026-09-02T11:01:20Z</time></trkpt><trkpt lat="59.4591424707" lon="31.0878854245"><ele>62.14</ele><time>2026-09-02T11:01:34Z</time></trkpt><trkpt lat="59.4590902515" lon="31.0878025275"><ele>62.14</ele><time>2026-09-02T11:01:47Z</time></trkpt><trkpt lat="59.4590741582" lon="31.0877254140"><ele>62.14</ele><time>2026-09-02T11:01:54Z</time></trkpt><trkpt lat="59.4590050913" lon="31.0876163654"><ele>62.14</ele><time>2026-09-02T11:02:04Z</time></trkpt><trkpt lat="59.4589439034" lon="31.0874793213"><ele>61.66</ele><time>2026-09-02T11:02:20Z</time></trkpt><trkpt lat="59.4589182548" lon="31.0875713546"><ele>61.66</ele><time>2026-09-02T11:02:37Z</time></trkpt><trkpt lat="59.4588471763" lon="31.0876577720"><ele>61.66</ele><time>2026-09-02T11:03:10Z</time></trkpt><trkpt lat="59.4588518701" lon="31.0877175350"><ele>61.66</ele><time>2026-09-02T11:03:38Z</time></trkpt><trkpt lat="59.4588643592" lon="31.0876152758"><ele>61.66</ele><time>2026-09-02T11:03:42Z</time></trkpt><trkpt lat="59.4589194283" lon="31.0874558520"><ele>61.66</ele><time>2026-09-02T11:04:01Z</time></trkpt><trkpt lat="59.4588352740" lon="31.0874985158"><ele>61.66</ele><time>2026-09-02T11:04:17Z</time></trkpt><trkpt lat="59.4587584119" lon="31.0874784831"><ele>61.66</ele><time>2026-09-02T11:04:32Z</time></trkpt><trkpt lat="59.4587631896" lon="31.0873371642"><ele>61.66</ele><time>2026-09-02T11:04:42Z</time></trkpt><trkpt lat="59.4587538857" lon="31.0871711187"><ele>61.66</ele><time>2026-09-02T11:04:55Z</time></trkpt><trkpt lat="59.4586864952" lon="31.0871316399"><ele>61.66</ele><time>2026-09-02T11:05:06Z</time></trkpt><trkpt lat="59.4586064480" lon="31.0869686119"><ele>61.66</ele><time>2026-09-02T11:05:19Z</time></trkpt><trkpt lat="59.4585909415" lon="31.0869039036"><ele>61.66</ele><time>2026-09-02T11:05:29Z</time></trkpt><trkpt lat="59.4585886784" lon="31.0868790094"><ele>61.66</ele><time>2026-09-02T11:05:41Z</time></trkpt><trkpt lat="59.4585128222" lon="31.0869027302"><ele>61.66</ele><time>2026-09-02T11:05:47Z</time></trkpt><trkpt lat="59.4585196115" lon="31.0867049173"><ele>61.18</ele><time>2026-09-02T11:06:00Z</time></trkpt><trkpt lat="59.4584934600" lon="31.0866624210"><ele>61.18</ele><time>2026-09-02T11:06:06Z</time></trkpt><trkpt lat="59.4584471080" lon="31.0865417216"><ele>61.18</ele><time>2026-09-02T11:06:20Z</time></trkpt><trkpt lat="59.4584401511" lon="31.0865450744"><ele>61.18</ele><time>2026-09-02T11:06:39Z</time></trkpt><trkpt lat="59.4583955593" lon="31.0865085293"><ele>61.18</ele><time>2026-09-02T11:06:54Z</time></trkpt><trkpt lat="59.4584117364" lon="31.0864453297"><ele>61.18</ele><time>2026-09-02T11:07:08Z</time></trkpt><trkpt lat="59.4584072102" lon="31.0864174180"><ele>61.18</ele><time>2026-09-02T11:07:24Z</time></trkpt><trkpt lat="59.4583600201" lon="31.0863342695"><ele>61.18</ele><time>2026-09-02T11:07:36Z</time></trkpt><trkpt lat="59.4583012629" lon="31.0863120575"><ele>61.18</ele><time>2026-09-02T11:07:48Z</time></trkpt><trkpt lat="59.4582508877" lon="31.0862524621"><ele>61.18</ele><time>2026-09-02T11:08:04Z</time></trkpt><trkpt lat="59.4582464453" lon="31.0862123966"><ele>61.18</ele><time>2026-09-02T11:08:21Z</time></trkpt><trkpt lat="59.4582218863" lon="31.0861735884"><ele>61.18</ele><time>2026-09-02T11:08:29Z</time></trkpt><trkpt lat="59.4581967406" lon="31.0860710777"><ele>61.18</ele><time>2026-09-02T11:08:40Z</time></trkpt><trkpt lat="59.4581607822" lon="31.0859549884"><ele>61.18</ele><time>2026-09-02T11:08:54Z</time></trkpt><trkpt lat="59.4581554178" lon="31.0859433375"><ele>61.18</ele><time>2026-09-02T11:08:55Z</time></trkpt><trkpt lat="59.4580976665" lon="31.0859166831"><ele>61.18</ele><time>2026-09-02T11:09:08Z</time></trkpt><trkpt lat="59.4580524042" lon="31.0859232210"><ele>61.18</ele><time>2026-09-02T11:09:25Z</time></trkpt><trkpt lat="59.4580036215" lon="31.0858798865"><ele>60.70</ele><time>2026-09-02T11:09:40Z</time></trkpt><trkpt lat="59.4579819962" lon="31.0857876018"><ele>60.70</ele><time>2026-09-02T11:09:56Z</time></trkpt><trkpt lat="59.4579658192" lon="31.0857052077"><ele>60.70</ele><time>2026-09-02T11:10:10Z</time></trkpt><trkpt lat="59.4579682499" lon="31.0856832471"><ele>60.70</ele><time>2026-09-02T11:10:11Z</time></trkpt><trkpt lat="59.4579995982" lon="31.0855533276"><ele>60.70</ele><time>2026-09-02T11:10:27Z</time></trkpt><trkpt lat="59.4579953235" lon="31.0855596140"><ele>60.70</ele><time>2026-09-02T11:10:39Z</time></trkpt><trkpt lat="59.4579145219" lon="31.0854232404"><ele>60.22</ele><time>2026-09-02T11:10:52Z</time></trkpt><trkpt lat="59.4579321239" lon="31.0853021219"><ele>60.22</ele><time>2026-09-02T11:11:07Z</time></trkpt><trkpt lat="59.4578746241" lon="31.0852307919"><ele>60.22</ele><time>2026-09-02T11:11:23Z</time></trkpt><trkpt lat="59.4578063954" lon="31.0852321330"><ele>60.22</ele><time>2026-09-02T11:11:35Z</time></trkpt><trkpt lat="59.4577966724" lon="31.0852245055"><ele>60.22</ele><time>2026-09-02T11:12:00Z</time></trkpt><trkpt lat="59.4577462971" lon="31.0852488130"><ele>60.22</ele><time>2026-09-02T11:12:19Z</time></trkpt><trkpt lat="59.4578916393" lon="31.0852219071"><ele>60.22</ele><time>2026-09-02T11:12:43Z</time></trkpt><trkpt lat="59.4578990154" lon="31.0852643196"><ele>59.26</ele><time>2026-09-02T11:12:57Z</time></trkpt><trkpt lat="59.4578349777" lon="31.0853783134"><ele>59.26</ele><time>2026-09-02T11:13:12Z</time></trkpt><trkpt lat="59.4578433596" lon="31.0853543412"><ele>59.26</ele><time>2026-09-02T11:13:36Z</time></trkpt><trkpt lat="59.4578276854" lon="31.0852701031"><ele>59.26</ele><time>2026-09-02T11:13:49Z</time></trkpt><trkpt lat="59.4577815011" lon="31.0851533432"><ele>59.26</ele><time>2026-09-02T11:14:12Z</time></trkpt><trkpt lat="59.4578051381" lon="31.0851622280"><ele>59.26</ele><time>2026-09-02T11:14:29Z</time></trkpt><trkpt lat="59.4578270987" lon="31.0851510800"><ele>59.26</ele><time>2026-09-02T11:14:41Z</time></trkpt><trkpt lat="59.4578177948" lon="31.0850602202"><ele>59.26</ele><time>2026-09-02T11:14:53Z</time></trkpt><trkpt lat="59.4578343071" lon="31.0850002058"><ele>59.26</ele><time>2026-09-02T11:14:59Z</time></trkpt><trkpt lat="59.4578970876" lon="31.0849587992"><ele>59.26</ele><time>2026-09-02T11:15:12Z</time></trkpt><trkpt lat="59.4579117559" lon="31.0848283768"><ele>59.26</ele><time>2026-09-02T11:15:23Z</time></trkpt><trkpt lat="59.4579424337" lon="31.0848277900"><ele>59.26</ele><time>2026-09-02T11:15:35Z</time></trkpt><trkpt lat="59.4580146018" lon="31.0847237706"><ele>59.26</ele><time>2026-09-02T11:15:50Z</time></trkpt><trkpt lat="59.4580154400" lon="31.0846642591"><ele>59.26</ele><time>2026-09-02T11:16:06Z</time></trkpt><trkpt lat="59.4579764642" lon="31.0846077651"><ele>59.26</ele><time>2026-09-02T11:16:20Z</time></trkpt><trkpt lat="59.4579871092" lon="31.0845734831"><ele>59.26</ele><time>2026-09-02T11:16:26Z</time></trkpt><trkpt lat="59.4580447767" lon="31.0846246127"><ele>59.26</ele><time>2026-09-02T11:16:39Z</time></trkpt><trkpt lat="59.4580612052" lon="31.0846123751"><ele>59.26</ele><time>2026-09-02T11:16:55Z</time></trkpt><trkpt lat="59.4581037015" lon="31.0845460743"><ele>59.26</ele><time>2026-09-02T11:17:03Z</time></trkpt><trkpt lat="59.4581449404" lon="31.0843530390"><ele>59.26</ele><time>2026-09-02T11:17:17Z</time></trkpt><trkpt lat="59.4581732713" lon="31.0843401309"><ele>59.26</ele><time>2026-09-02T11:17:23Z</time></trkpt><trkpt lat="59.4582796376" lon="31.0843299888"><ele>59.26</ele><time>2026-09-02T11:17:42Z</time></trkpt><trkpt lat="59.4582938030" lon="31.0842688009"><ele>59.26</ele><time>2026-09-02T11:17:56Z</time></trkpt><trkpt lat="59.4582528993" lon="31.0841609258"><ele>59.26</ele><time>2026-09-02T11:18:41Z</time></trkpt><trkpt lat="59.4582734350" lon="31.0842279810"><ele>59.26</ele><time>2026-09-02T11:19:01Z</time></trkpt><trkpt lat="59.4583208766" lon="31.0843677912"><ele>59.26</ele><time>2026-09-02T11:19:17Z</time></trkpt><trkpt lat="59.4583249837" lon="31.0844242014"><ele>59.26</ele><time>2026-09-02T11:19:50Z</time></trkpt><trkpt lat="59.4583263248" lon="31.0844470002"><ele>59.26</ele><time>2026-09-02T11:20:07Z</time></trkpt><trkpt lat="59.4583115727" lon="31.0845059250"><ele>59.26</ele><time>2026-09-02T11:20:30Z</time></trkpt><trkpt lat="59.4583450165" lon="31.0844860598"><ele>59.26</ele><time>2026-09-02T11:20:52Z</time></trkpt><trkpt lat="59.4583279174" lon="31.0845491756"><ele>59.26</ele><time>2026-09-02T11:21:12Z</time></trkpt><trkpt lat="59.4582929648" lon="31.0845407099"><ele>59.26</ele><time>2026-09-02T11:21:30Z</time></trkpt><trkpt lat="59.4584240578" lon="31.0845858883"><ele>59.26</ele><time>2026-09-02T11:21:53Z</time></trkpt><trkpt lat="59.4584249798" lon="31.0846212599"><ele>58.78</ele><time>2026-09-02T11:22:05Z</time></trkpt><trkpt lat="59.4584558252" lon="31.0847448092"><ele>58.78</ele><time>2026-09-02T11:22:17Z</time></trkpt><trkpt lat="59.4585037697" lon="31.0849347431"><ele>58.78</ele><time>2026-09-02T11:22:29Z</time></trkpt><trkpt lat="59.4585410692" lon="31.0850074142"><ele>58.78</ele><time>2026-09-02T11:22:37Z</time></trkpt><trkpt lat="59.4585705735" lon="31.0851240065"><ele>58.78</ele><time>2026-09-02T11:22:50Z</time></trkpt><trkpt lat="59.4585825596" lon="31.0851281974"><ele>58.78</ele><time>2026-09-02T11:22:53Z</time></trkpt><trkpt lat="59.4586576615" lon="31.0852046404"><ele>58.78</ele><time>2026-09-02T11:23:06Z</time></trkpt><trkpt lat="59.4586880878" lon="31.0852131899"><ele>58.78</ele><time>2026-09-02T11:23:09Z</time></trkpt><trkpt lat="59.4588176720" lon="31.0852247570"><ele>58.78</ele><time>2026-09-02T11:23:22Z</time></trkpt><trkpt lat="59.4588732440" lon="31.0853495635"><ele>58.78</ele><time>2026-09-02T11:23:36Z</time></trkpt><trkpt lat="59.4588868227" lon="31.0854495596"><ele>58.78</ele><time>2026-09-02T11:23:47Z</time></trkpt><trkpt lat="59.4589242060" lon="31.0855036229"><ele>58.78</ele><time>2026-09-02T11:23:55Z</time></trkpt><trkpt lat="59.4589664508" lon="31.0855901241"><ele>58.78</ele><time>2026-09-02T11:24:04Z</time></trkpt><trkpt lat="59.4590184186" lon="31.0857648868"><ele>58.78</ele><time>2026-09-02T11:24:15Z</time></trkpt><trkpt lat="59.4590391219" lon="31.0859322734"><ele>58.78</ele><time>2026-09-02T11:24:26Z</time></trkpt><trkpt lat="59.4590728171" lon="31.0860938765"><ele>58.78</ele><time>2026-09-02T11:24:38Z</time></trkpt><trkpt lat="59.4591257069" lon="31.0862320103"><ele>58.78</ele><time>2026-09-02T11:24:47Z</time></trkpt><trkpt lat="59.4591824524" lon="31.0863620136"><ele>58.78</ele><time>2026-09-02T11:24:57Z</time></trkpt><trkpt lat="59.4591805246" lon="31.0864257999"><ele>58.78</ele><time>2026-09-02T11:25:07Z</time></trkpt><trkpt lat="59.4592603203" lon="31.0865260474"><ele>58.78</ele><time>2026-09-02T11:25:20Z</time></trkpt><trkpt lat="59.4592795987" lon="31.0865027457"><ele>58.78</ele><time>2026-09-02T11:25:26Z</time></trkpt><trkpt lat="59.4592959434" lon="31.0864225309"><ele>58.78</ele><time>2026-09-02T11:25:38Z</time></trkpt><trkpt lat="59.4593252800" lon="31.0865104571"><ele>58.78</ele><time>2026-09-02T11:25:50Z</time></trkpt><trkpt lat="59.4593827799" lon="31.0865606647"><ele>58.78</ele><time>2026-09-02T11:26:02Z</time></trkpt><trkpt lat="59.4594003819" lon="31.0865931865"><ele>58.78</ele><time>2026-09-02T11:26:07Z</time></trkpt><trkpt lat="59.4593554549" lon="31.0866946913"><ele>58.78</ele><time>2026-09-02T11:26:20Z</time></trkpt><trkpt lat="59.4593581371" lon="31.0866938531"><ele>58.78</ele><time>2026-09-02T11:26:24Z</time></trkpt><trkpt lat="59.4593880605" lon="31.0866086930"><ele>58.78</ele><time>2026-09-02T11:26:37Z</time></trkpt><trkpt lat="59.4593940955" lon="31.0866492614"><ele>58.78</ele><time>2026-09-02T11:26:51Z</time></trkpt><trkpt lat="59.4593791757" lon="31.0867228545"><ele>58.78</ele><time>2026-09-02T11:27:07Z</time></trkpt><trkpt lat="59.4593942631" lon="31.0867146403"><ele>58.78</ele><time>2026-09-02T11:27:19Z</time></trkpt><trkpt lat="59.4594307244" lon="31.0867834557"><ele>58.78</ele><time>2026-09-02T11:27:33Z</time></trkpt><trkpt lat="59.4595054910" lon="31.0868909955"><ele>58.78</ele><time>2026-09-02T11:27:45Z</time></trkpt><trkpt lat="59.4595122803" lon="31.0870236810"><ele>58.78</ele><time>2026-09-02T11:27:57Z</time></trkpt><trkpt lat="59.4595670141" lon="31.0870908201"><ele>58.78</ele><time>2026-09-02T11:28:08Z</time></trkpt><trkpt lat="59.4595993683" lon="31.0871026386"><ele>58.78</ele><time>2026-09-02T11:28:19Z</time></trkpt><trkpt lat="59.4596582092" lon="31.0871726274"><ele>58.78</ele><time>2026-09-02T11:28:29Z</time></trkpt><trkpt lat="59.4596831873" lon="31.0871581268"><ele>58.78</ele><time>2026-09-02T11:28:37Z</time></trkpt><trkpt lat="59.4597509131" lon="31.0872970987"><ele>58.78</ele><time>2026-09-02T11:28:52Z</time></trkpt><trkpt lat="59.4597754721" lon="31.0874097515"><ele>58.78</ele><time>2026-09-02T11:29:04Z</time></trkpt><trkpt lat="59.4598001149" lon="31.0875726119"><ele>58.78</ele><time>2026-09-02T11:29:18Z</time></trkpt><trkpt lat="59.4598807488" lon="31.0876348894"><ele>58.78</ele><time>2026-09-02T11:29:31Z</time></trkpt><trkpt lat="59.4599626400" lon="31.0876980051"><ele>58.78</ele><time>2026-09-02T11:29:43Z</time></trkpt><trkpt lat="59.4600306172" lon="31.0878373962"><ele>58.78</ele><time>2026-09-02T11:29:55Z</time></trkpt><trkpt lat="59.4600751251" lon="31.0878912080"><ele>58.78</ele><time>2026-09-02T11:30:03Z</time></trkpt><trkpt lat="59.4600673299" lon="31.0880383942"><ele>58.78</ele><time>2026-09-02T11:30:21Z</time></trkpt><trkpt lat="59.4601129275" lon="31.0881889332"><ele>58.78</ele><time>2026-09-02T11:30:34Z</time></trkpt><trkpt lat="59.4601861853" lon="31.0882387217"><ele>58.78</ele><time>2026-09-02T11:30:47Z</time></trkpt><trkpt lat="59.4602186233" lon="31.0883303359"><ele>58.78</ele><time>2026-09-02T11:30:58Z</time></trkpt><trkpt lat="59.4602584373" lon="31.0884113051"><ele>58.78</ele><time>2026-09-02T11:31:14Z</time></trkpt><trkpt lat="59.4603174459" lon="31.0885277297"><ele>58.78</ele><time>2026-09-02T11:31:27Z</time></trkpt><trkpt lat="59.4603358861" lon="31.0885897558"><ele>58.78</ele><time>2026-09-02T11:31:35Z</time></trkpt><trkpt lat="59.4603347965" lon="31.0886319168"><ele>58.78</ele><time>2026-09-02T11:31:37Z</time></trkpt><trkpt lat="59.4604026061" lon="31.0887206811"><ele>58.78</ele><time>2026-09-02T11:31:50Z</time></trkpt><trkpt lat="59.4604047853" lon="31.0887745768"><ele>57.82</ele><time>2026-09-02T11:32:04Z</time></trkpt><trkpt lat="59.4604181964" lon="31.0888148937"><ele>57.82</ele><time>2026-09-02T11:32:10Z</time></trkpt><trkpt lat="59.4605136663" lon="31.0888293106"><ele>57.82</ele><time>2026-09-02T11:32:23Z</time></trkpt><trkpt lat="59.4605416618" lon="31.0889210086"><ele>57.82</ele><time>2026-09-02T11:32:38Z</time></trkpt><trkpt lat="59.4605192821" lon="31.0890078451"><ele>57.82</ele><time>2026-09-02T11:32:57Z</time></trkpt><trkpt lat="59.4605049491" lon="31.0889602359"><ele>57.82</ele><time>2026-09-02T11:33:08Z</time></trkpt><trkpt lat="59.4604306854" lon="31.0889886506"><ele>57.82</ele><time>2026-09-02T11:33:22Z</time></trkpt><trkpt lat="59.4604486227" lon="31.0890693683"><ele>58.30</ele><time>2026-09-02T11:33:32Z</time></trkpt><trkpt lat="59.4604898617" lon="31.0890562087"><ele>58.30</ele><time>2026-09-02T11:33:48Z</time></trkpt><trkpt lat="59.4604591001" lon="31.0890151374"><ele>58.30</ele><time>2026-09-02T11:34:02Z</time></trkpt><trkpt lat="59.4604799710" lon="31.0890456475"><ele>58.30</ele><time>2026-09-02T11:34:12Z</time></trkpt><trkpt lat="59.4604433421" lon="31.0889767483"><ele>58.30</ele><time>2026-09-02T11:34:27Z</time></trkpt><trkpt lat="59.4604481198" lon="31.0889892373"><ele>58.30</ele><time>2026-09-02T11:34:46Z</time></trkpt><trkpt lat="59.4604486227" lon="31.0889189970"><ele>58.30</ele><time>2026-09-02T11:35:09Z</time></trkpt><trkpt lat="59.4604140893" lon="31.0889195837"><ele>57.82</ele><time>2026-09-02T11:35:26Z</time></trkpt><trkpt lat="59.4605007581" lon="31.0889834538"><ele>57.82</ele><time>2026-09-02T11:35:39Z</time></trkpt><trkpt lat="59.4605245627" lon="31.0891012195"><ele>57.82</ele><time>2026-09-02T11:35:58Z</time></trkpt><trkpt lat="59.4604741037" lon="31.0891878046"><ele>57.82</ele><time>2026-09-02T11:36:18Z</time></trkpt><trkpt lat="59.4605182763" lon="31.0891064163"><ele>57.82</ele><time>2026-09-02T11:36:45Z</time></trkpt><trkpt lat="59.4605472777" lon="31.0891844518"><ele>57.82</ele><time>2026-09-02T11:37:05Z</time></trkpt><trkpt lat="59.4605500437" lon="31.0891474038"><ele>58.30</ele><time>2026-09-02T11:37:22Z</time></trkpt><trkpt lat="59.4605820626" lon="31.0891803447"><ele>58.30</ele><time>2026-09-02T11:37:38Z</time></trkpt><trkpt lat="59.4605533965" lon="31.0892332345"><ele>58.30</ele><time>2026-09-02T11:37:55Z</time></trkpt><trkpt lat="59.4605517201" lon="31.0892167222"><ele>58.30</ele><time>2026-09-02T11:38:13Z</time></trkpt><trkpt lat="59.4606229663" lon="31.0891615693"><ele>58.30</ele><time>2026-09-02T11:38:25Z</time></trkpt><trkpt lat="59.4606973138" lon="31.0891292989"><ele>58.30</ele><time>2026-09-02T11:38:37Z</time></trkpt><trkpt lat="59.4607699011" lon="31.0891827755"><ele>58.30</ele><time>2026-09-02T11:38:49Z</time></trkpt><trkpt lat="59.4607912749" lon="31.0892800055"><ele>58.78</ele><time>2026-09-02T11:39:03Z</time></trkpt><trkpt lat="59.4608413987" lon="31.0894077457"><ele>58.78</ele><time>2026-09-02T11:39:14Z</time></trkpt><trkpt lat="59.4608845655" lon="31.0894401837"><ele>58.78</ele><time>2026-09-02T11:39:20Z</time></trkpt><trkpt lat="59.4609278999" lon="31.0895215720"><ele>58.78</ele><time>2026-09-02T11:39:34Z</time></trkpt><trkpt lat="59.4609797839" lon="31.0896690097"><ele>58.78</ele><time>2026-09-02T11:39:48Z</time></trkpt><trkpt lat="59.4610051811" lon="31.0897759628"><ele>58.78</ele><time>2026-09-02T11:40:00Z</time></trkpt><trkpt lat="59.4610542152" lon="31.0898272600"><ele>58.78</ele><time>2026-09-02T11:40:13Z</time></trkpt><trkpt lat="59.4611034170" lon="31.0899093188"><ele>58.78</ele><time>2026-09-02T11:40:25Z</time></trkpt><trkpt lat="59.4611211028" lon="31.0900860094"><ele>58.78</ele><time>2026-09-02T11:40:40Z</time></trkpt><trkpt lat="59.4611843023" lon="31.0901979916"><ele>58.78</ele><time>2026-09-02T11:40:50Z</time></trkpt><trkpt lat="59.4612082746" lon="31.0902653821"><ele>58.78</ele><time>2026-09-02T11:41:03Z</time></trkpt><trkpt lat="59.4612722285" lon="31.0903564095"><ele>58.78</ele><time>2026-09-02T11:41:17Z</time></trkpt><trkpt lat="59.4613239449" lon="31.0903294198"><ele>58.78</ele><time>2026-09-02T11:41:30Z</time></trkpt><trkpt lat="59.4613995496" lon="31.0903709102"><ele>58.78</ele><time>2026-09-02T11:41:42Z</time></trkpt><trkpt lat="59.4614174031" lon="31.0905147437"><ele>58.78</ele><time>2026-09-02T11:41:54Z</time></trkpt><trkpt lat="59.4614265393" lon="31.0906566493"><ele>58.78</ele><time>2026-09-02T11:42:07Z</time></trkpt><trkpt lat="59.4614740647" lon="31.0906783585"><ele>58.78</ele><time>2026-09-02T11:42:15Z</time></trkpt><trkpt lat="59.4614922535" lon="31.0906588286"><ele>58.78</ele><time>2026-09-02T11:42:36Z</time></trkpt><trkpt lat="59.4615516812" lon="31.0906031728"><ele>60.22</ele><time>2026-09-02T11:43:14Z</time></trkpt><trkpt lat="59.4616018888" lon="31.0904772766"><ele>60.22</ele><time>2026-09-02T11:43:27Z</time></trkpt><trkpt lat="59.4616893120" lon="31.0905125644"><ele>60.22</ele><time>2026-09-02T11:43:37Z</time></trkpt><trkpt lat="59.4617530983" lon="31.0903906915"><ele>60.22</ele><time>2026-09-02T11:43:49Z</time></trkpt><trkpt lat="59.4617396034" lon="31.0904053599"><ele>60.70</ele><time>2026-09-02T11:43:59Z</time></trkpt><trkpt lat="59.4618179742" lon="31.0903352033"><ele>60.70</ele><time>2026-09-02T11:44:14Z</time></trkpt><trkpt lat="59.4619330578" lon="31.0902953893"><ele>59.74</ele><time>2026-09-02T11:44:25Z</time></trkpt><trkpt lat="59.4619770627" lon="31.0902165156"><ele>59.74</ele><time>2026-09-02T11:44:39Z</time></trkpt><trkpt lat="59.4619776495" lon="31.0901884362"><ele>59.74</ele><time>2026-09-02T11:44:41Z</time></trkpt><trkpt lat="59.4620056450" lon="31.0901155975"><ele>59.74</ele><time>2026-09-02T11:44:47Z</time></trkpt><trkpt lat="59.4620846026" lon="31.0899946466"><ele>59.74</ele><time>2026-09-02T11:45:02Z</time></trkpt><trkpt lat="59.4620985165" lon="31.0900276713"><ele>59.26</ele><time>2026-09-02T11:45:14Z</time></trkpt><trkpt lat="59.4621376600" lon="31.0900294315"><ele>59.26</ele><time>2026-09-02T11:45:30Z</time></trkpt><trkpt lat="59.4621916395" lon="31.0899621248"><ele>59.26</ele><time>2026-09-02T11:45:42Z</time></trkpt><trkpt lat="59.4622108340" lon="31.0898813233"><ele>59.26</ele><time>2026-09-02T11:45:49Z</time></trkpt><trkpt lat="59.4621970039" lon="31.0898201354"><ele>59.26</ele><time>2026-09-02T11:46:05Z</time></trkpt><trkpt lat="59.4621978421" lon="31.0898018628"><ele>59.26</ele><time>2026-09-02T11:46:27Z</time></trkpt><trkpt lat="59.4621462096" lon="31.0897731129"><ele>59.26</ele><time>2026-09-02T11:46:30Z</time></trkpt><trkpt lat="59.4621863589" lon="31.0897982586"><ele>59.74</ele><time>2026-09-02T11:46:56Z</time></trkpt><trkpt lat="59.4621504843" lon="31.0898575187"><ele>59.74</ele><time>2026-09-02T11:47:13Z</time></trkpt><trkpt lat="59.4621485565" lon="31.0898037907"><ele>59.74</ele><time>2026-09-02T11:47:24Z</time></trkpt><trkpt lat="59.4621421862" lon="31.0896387510"><ele>59.74</ele><time>2026-09-02T11:47:36Z</time></trkpt><trkpt lat="59.4621634763" lon="31.0895676725"><ele>59.74</ele><time>2026-09-02T11:47:48Z</time></trkpt><trkpt lat="59.4621162862" lon="31.0894589592"><ele>59.74</ele><time>2026-09-02T11:48:01Z</time></trkpt><trkpt lat="59.4620546792" lon="31.0894724540"><ele>59.74</ele><time>2026-09-02T11:48:12Z</time></trkpt><trkpt lat="59.4620011188" lon="31.0894185584"><ele>60.22</ele><time>2026-09-02T11:48:21Z</time></trkpt><trkpt lat="59.4619855285" lon="31.0893163830"><ele>60.22</ele><time>2026-09-02T11:48:32Z</time></trkpt><trkpt lat="59.4619537611" lon="31.0892289598"><ele>60.22</ele><time>2026-09-02T11:48:47Z</time></trkpt><trkpt lat="59.4619143661" lon="31.0892529320"><ele>60.22</ele><time>2026-09-02T11:48:55Z</time></trkpt><trkpt lat="59.4619574491" lon="31.0891779978"><ele>60.22</ele><time>2026-09-02T11:49:45Z</time></trkpt><trkpt lat="59.4619361591" lon="31.0892188177"><ele>60.22</ele><time>2026-09-02T11:50:19Z</time></trkpt><trkpt lat="59.4619463012" lon="31.0892145429"><ele>60.22</ele><time>2026-09-02T11:50:56Z</time></trkpt><trkpt lat="59.4619282801" lon="31.0892725457"><ele>60.22</ele><time>2026-09-02T11:51:25Z</time></trkpt><trkpt lat="59.4619322196" lon="31.0892079212"><ele>60.22</ele><time>2026-09-02T11:52:01Z</time></trkpt><trkpt lat="59.4618615601" lon="31.0892419517"><ele>60.22</ele><time>2026-09-02T11:52:19Z</time></trkpt><trkpt lat="59.4619073253" lon="31.0893167183"><ele>60.22</ele><time>2026-09-02T11:52:42Z</time></trkpt><trkpt lat="59.4619036373" lon="31.0893786605"><ele>60.22</ele><time>2026-09-02T11:53:06Z</time></trkpt><trkpt lat="59.4618807547" lon="31.0892164707"><ele>60.22</ele><time>2026-09-02T11:53:23Z</time></trkpt><trkpt lat="59.4618904777" lon="31.0891088471"><ele>60.22</ele><time>2026-09-02T11:53:34Z</time></trkpt><trkpt lat="59.4618447125" lon="31.0889832024"><ele>60.22</ele><time>2026-09-02T11:53:45Z</time></trkpt><trkpt lat="59.4617755618" lon="31.0889469925"><ele>60.22</ele><time>2026-09-02T11:53:58Z</time></trkpt><trkpt lat="59.4617042318" lon="31.0888764169"><ele>60.22</ele><time>2026-09-02T11:54:09Z</time></trkpt><trkpt lat="59.4616614003" lon="31.0887944419"><ele>60.22</ele><time>2026-09-02T11:54:18Z</time></trkpt><trkpt lat="59.4615890644" lon="31.0886873212"><ele>60.22</ele><time>2026-09-02T11:54:31Z</time></trkpt><trkpt lat="59.4615377672" lon="31.0886125546"><ele>60.22</ele><time>2026-09-02T11:54:44Z</time></trkpt><trkpt lat="59.4615068380" lon="31.0885748360"><ele>59.74</ele><time>2026-09-02T11:55:13Z</time></trkpt><trkpt lat="59.4614723884" lon="31.0885597486"><ele>59.74</ele><time>2026-09-02T11:55:21Z</time></trkpt><trkpt lat="59.4614023156" lon="31.0885640234"><ele>59.74</ele><time>2026-09-02T11:55:34Z</time></trkpt><trkpt lat="59.4613801036" lon="31.0884890053"><ele>59.74</ele><time>2026-09-02T11:55:46Z</time></trkpt><trkpt lat="59.4613513537" lon="31.0883974750"><ele>59.74</ele><time>2026-09-02T11:55:58Z</time></trkpt><trkpt lat="59.4612631761" lon="31.0883319285"><ele>59.74</ele><time>2026-09-02T11:56:13Z</time></trkpt><trkpt lat="59.4612201769" lon="31.0883121472"><ele>59.74</ele><time>2026-09-02T11:56:31Z</time></trkpt><trkpt lat="59.4612692110" lon="31.0881259013"><ele>59.74</ele><time>2026-09-02T11:56:45Z</time></trkpt><trkpt lat="59.4612786826" lon="31.0879654717"><ele>59.74</ele><time>2026-09-02T11:56:58Z</time></trkpt><trkpt lat="59.4612703845" lon="31.0878943093"><ele>59.74</ele><time>2026-09-02T11:57:10Z</time></trkpt><trkpt lat="59.4613019004" lon="31.0878072213"><ele>59.74</ele><time>2026-09-02T11:57:23Z</time></trkpt><trkpt lat="59.4612929318" lon="31.0877516493"><ele>59.74</ele><time>2026-09-02T11:57:35Z</time></trkpt><trkpt lat="59.4612199254" lon="31.0877535772"><ele>59.74</ele><time>2026-09-02T11:57:49Z</time></trkpt><trkpt lat="59.4611927681" lon="31.0877829976"><ele>60.22</ele><time>2026-09-02T11:58:07Z</time></trkpt><trkpt lat="59.4612260442" lon="31.0877809022"><ele>60.22</ele><time>2026-09-02T11:58:28Z</time></trkpt><trkpt lat="59.4611561392" lon="31.0878121667"><ele>60.22</ele><time>2026-09-02T11:58:48Z</time></trkpt><trkpt lat="59.4611718133" lon="31.0876936466"><ele>60.22</ele><time>2026-09-02T11:59:07Z</time></trkpt><trkpt lat="59.4611302391" lon="31.0877238214"><ele>60.22</ele><time>2026-09-02T11:59:20Z</time></trkpt><trkpt lat="59.4611747470" lon="31.0877040401"><ele>60.22</ele><time>2026-09-02T11:59:28Z</time></trkpt><trkpt lat="59.4612344261" lon="31.0875902977"><ele>60.22</ele><time>2026-09-02T11:59:41Z</time></trkpt><trkpt lat="59.4611938577" lon="31.0875677504"><ele>60.70</ele><time>2026-09-02T11:59:55Z</time></trkpt><trkpt lat="59.4611787703" lon="31.0875645652"><ele>60.70</ele><time>2026-09-02T12:00:04Z</time></trkpt><trkpt lat="59.4612030778" lon="31.0876030382"><ele>60.70</ele><time>2026-09-02T12:00:21Z</time></trkpt><trkpt lat="59.4612120464" lon="31.0876677465"><ele>60.70</ele><time>2026-09-02T12:00:34Z</time></trkpt><trkpt lat="59.4612088613" lon="31.0877645575"><ele>60.70</ele><time>2026-09-02T12:00:52Z</time></trkpt><trkpt lat="59.4611581508" lon="31.0876846779"><ele>60.70</ele><time>2026-09-02T12:01:21Z</time></trkpt><trkpt lat="59.4611676224" lon="31.0877008550"><ele>60.70</ele><time>2026-09-02T12:01:40Z</time></trkpt><trkpt lat="59.4611712266" lon="31.0877301078"><ele>60.70</ele><time>2026-09-02T12:02:08Z</time></trkpt><trkpt lat="59.4611344300" lon="31.0877287667"><ele>60.70</ele><time>2026-09-02T12:02:25Z</time></trkpt><trkpt lat="59.4611128047" lon="31.0877145175"><ele>60.70</ele><time>2026-09-02T12:02:46Z</time></trkpt><trkpt lat="59.4611236174" lon="31.0875533335"><ele>60.70</ele><time>2026-09-02T12:03:01Z</time></trkpt><trkpt lat="59.4611746632" lon="31.0875620507"><ele>60.70</ele><time>2026-09-02T12:03:19Z</time></trkpt><trkpt lat="59.4611736573" lon="31.0874163732"><ele>60.70</ele><time>2026-09-02T12:03:38Z</time></trkpt><trkpt lat="59.4611206837" lon="31.0874259286"><ele>60.70</ele><time>2026-09-02T12:03:57Z</time></trkpt><trkpt lat="59.4610923529" lon="31.0875251703"><ele>60.70</ele><time>2026-09-02T12:04:09Z</time></trkpt><trkpt lat="59.4610381220" lon="31.0876758769"><ele>61.18</ele><time>2026-09-02T12:04:26Z</time></trkpt><trkpt lat="59.4609333482" lon="31.0876458697"><ele>61.18</ele><time>2026-09-02T12:04:42Z</time></trkpt><trkpt lat="59.4609471783" lon="31.0875905491"><ele>61.18</ele><time>2026-09-02T12:04:59Z</time></trkpt><trkpt lat="59.4609980565" lon="31.0874738730"><ele>61.18</ele><time>2026-09-02T12:05:11Z</time></trkpt><trkpt lat="59.4609804545" lon="31.0873681773"><ele>61.18</ele><time>2026-09-02T12:05:27Z</time></trkpt><trkpt lat="59.4609268941" lon="31.0872339830"><ele>61.18</ele><time>2026-09-02T12:05:40Z</time></trkpt><trkpt lat="59.4608726632" lon="31.0871814284"><ele>61.18</ele><time>2026-09-02T12:05:52Z</time></trkpt><trkpt lat="59.4608331006" lon="31.0871274490"><ele>61.18</ele><time>2026-09-02T12:06:03Z</time></trkpt><trkpt lat="59.4607977290" lon="31.0871135350"><ele>61.18</ele><time>2026-09-02T12:06:07Z</time></trkpt><trkpt lat="59.4607473537" lon="31.0870676860"><ele>61.18</ele><time>2026-09-02T12:06:16Z</time></trkpt><trkpt lat="59.4607426599" lon="31.0869685281"><ele>61.18</ele><time>2026-09-02T12:06:27Z</time></trkpt><trkpt lat="59.4607131556" lon="31.0868929233"><ele>61.18</ele><time>2026-09-02T12:06:37Z</time></trkpt><trkpt lat="59.4606477767" lon="31.0868087690"><ele>61.18</ele><time>2026-09-02T12:06:52Z</time></trkpt><trkpt lat="59.4606216252" lon="31.0867256206"><ele>61.18</ele><time>2026-09-02T12:07:01Z</time></trkpt><trkpt lat="59.4606222957" lon="31.0867107846"><ele>61.18</ele><time>2026-09-02T12:07:02Z</time></trkpt><trkpt lat="59.4605706632" lon="31.0865764227"><ele>61.18</ele><time>2026-09-02T12:07:18Z</time></trkpt><trkpt lat="59.4605128281" lon="31.0864387080"><ele>61.18</ele><time>2026-09-02T12:07:32Z</time></trkpt><trkpt lat="59.4604689069" lon="31.0863836389"><ele>61.18</ele><time>2026-09-02T12:07:43Z</time></trkpt><trkpt lat="59.4604054559" lon="31.0862649512"><ele>61.18</ele><time>2026-09-02T12:07:57Z</time></trkpt><trkpt lat="59.4603351317" lon="31.0861538909"><ele>61.18</ele><time>2026-09-02T12:08:10Z</time></trkpt><trkpt lat="59.4603137579" lon="31.0860648751"><ele>61.18</ele><time>2026-09-02T12:08:23Z</time></trkpt><trkpt lat="59.4602668192" lon="31.0859475285"><ele>61.18</ele><time>2026-09-02T12:08:35Z</time></trkpt><trkpt lat="59.4601731095" lon="31.0858181119"><ele>61.18</ele><time>2026-09-02T12:08:47Z</time></trkpt><trkpt lat="59.4601664878" lon="31.0858059581"><ele>61.18</ele><time>2026-09-02T12:08:48Z</time></trkpt><trkpt lat="59.4601472095" lon="31.0857778788"><ele>61.18</ele><time>2026-09-02T12:08:50Z</time></trkpt><trkpt lat="59.4600472134" lon="31.0857504699"><ele>61.18</ele><time>2026-09-02T12:09:05Z</time></trkpt><trkpt lat="59.4600229897" lon="31.0856488813"><ele>61.18</ele><time>2026-09-02T12:09:17Z</time></trkpt><trkpt lat="59.4600001071" lon="31.0856235679"><ele>61.18</ele><time>2026-09-02T12:09:32Z</time></trkpt><trkpt lat="59.4600125961" lon="31.0855576862"><ele>61.18</ele><time>2026-09-02T12:09:45Z</time></trkpt><trkpt lat="59.4600328803" lon="31.0854294430"><ele>61.66</ele><time>2026-09-02T12:10:03Z</time></trkpt><trkpt lat="59.4600091595" lon="31.0854275990"><ele>61.66</ele><time>2026-09-02T12:10:24Z</time></trkpt><trkpt lat="59.4599690102" lon="31.0853985138"><ele>61.66</ele><time>2026-09-02T12:10:43Z</time></trkpt><trkpt lat="59.4600081537" lon="31.0854356457"><ele>61.66</ele><time>2026-09-02T12:11:04Z</time></trkpt><trkpt lat="59.4599903841" lon="31.0855714325"><ele>61.66</ele><time>2026-09-02T12:11:24Z</time></trkpt><trkpt lat="59.4600010291" lon="31.0854702629"><ele>61.18</ele><time>2026-09-02T12:11:46Z</time></trkpt><trkpt lat="59.4599717762" lon="31.0853783134"><ele>61.18</ele><time>2026-09-02T12:12:10Z</time></trkpt><trkpt lat="59.4600120932" lon="31.0853267647"><ele>61.18</ele><time>2026-09-02T12:12:24Z</time></trkpt><trkpt lat="59.4600273483" lon="31.0852842685"><ele>61.18</ele><time>2026-09-02T12:12:39Z</time></trkpt><trkpt lat="59.4600410946" lon="31.0852835979"><ele>61.18</ele><time>2026-09-02T12:12:53Z</time></trkpt><trkpt lat="59.4600364845" lon="31.0852849390"><ele>61.18</ele><time>2026-09-02T12:13:05Z</time></trkpt><trkpt lat="59.4600310363" lon="31.0853187181"><ele>61.18</ele><time>2026-09-02T12:13:15Z</time></trkpt><trkpt lat="59.4600299466" lon="31.0852870345"><ele>61.18</ele><time>2026-09-02T12:13:27Z</time></trkpt><trkpt lat="59.4599728659" lon="31.0852034669"><ele>61.18</ele><time>2026-09-02T12:13:40Z</time></trkpt><trkpt lat="59.4598977640" lon="31.0852918960"><ele>61.18</ele><time>2026-09-02T12:13:53Z</time></trkpt><trkpt lat="59.4597553555" lon="31.0853342246"><ele>61.18</ele><time>2026-09-02T12:14:09Z</time></trkpt><trkpt lat="59.4597251806" lon="31.0852851905"><ele>61.18</ele><time>2026-09-02T12:14:16Z</time></trkpt><trkpt lat="59.4596342370" lon="31.0852720309"><ele>61.18</ele><time>2026-09-02T12:14:29Z</time></trkpt><trkpt lat="59.4595989492" lon="31.0851530079"><ele>61.18</ele><time>2026-09-02T12:14:40Z</time></trkpt><trkpt lat="59.4595652539" lon="31.0851004533"><ele>61.18</ele><time>2026-09-02T12:14:45Z</time></trkpt><trkpt lat="59.4595328160" lon="31.0849638283"><ele>61.18</ele><time>2026-09-02T12:15:00Z</time></trkpt><trkpt lat="59.4595125318" lon="31.0848531034"><ele>61.18</ele><time>2026-09-02T12:15:14Z</time></trkpt><trkpt lat="59.4595547765" lon="31.0847004689"><ele>61.18</ele><time>2026-09-02T12:15:29Z</time></trkpt><trkpt lat="59.4595434610" lon="31.0846123751"><ele>61.18</ele><time>2026-09-02T12:15:39Z</time></trkpt><trkpt lat="59.4594639167" lon="31.0844750796"><ele>61.18</ele><time>2026-09-02T12:15:51Z</time></trkpt><trkpt lat="59.4594015554" lon="31.0843578167"><ele>61.18</ele><time>2026-09-02T12:16:05Z</time></trkpt><trkpt lat="59.4593715481" lon="31.0842135642"><ele>61.18</ele><time>2026-09-02T12:16:17Z</time></trkpt><trkpt lat="59.4593515992" lon="31.0841229558"><ele>61.18</ele><time>2026-09-02T12:16:30Z</time></trkpt><trkpt lat="59.4593463186" lon="31.0840852372"><ele>61.18</ele><time>2026-09-02T12:16:34Z</time></trkpt><trkpt lat="59.4593067560" lon="31.0839310940"><ele>61.18</ele><time>2026-09-02T12:16:50Z</time></trkpt><trkpt lat="59.4592787605" lon="31.0838373844"><ele>61.18</ele><time>2026-09-02T12:17:02Z</time></trkpt><trkpt lat="59.4592518546" lon="31.0837690718"><ele>61.18</ele><time>2026-09-02T12:17:13Z</time></trkpt><trkpt lat="59.4591604918" lon="31.0836340394"><ele>61.18</ele><time>2026-09-02T12:17:26Z</time></trkpt><trkpt lat="59.4591350947" lon="31.0835953988"><ele>61.18</ele><time>2026-09-02T12:17:29Z</time></trkpt><trkpt lat="59.4590885751" lon="31.0834959894"><ele>61.18</ele><time>2026-09-02T12:17:42Z</time></trkpt><trkpt lat="59.4589791074" lon="31.0835373122"><ele>61.18</ele><time>2026-09-02T12:17:55Z</time></trkpt><trkpt lat="59.4588791113" lon="31.0834783036"><ele>61.18</ele><time>2026-09-02T12:18:10Z</time></trkpt><trkpt lat="59.4588518701" lon="31.0834533256"><ele>61.18</ele><time>2026-09-02T12:18:22Z</time></trkpt><trkpt lat="59.4588544685" lon="31.0834525712"><ele>61.18</ele><time>2026-09-02T12:18:23Z</time></trkpt><trkpt lat="59.4587848987" lon="31.0834144335"><ele>61.18</ele><time>2026-09-02T12:18:58Z</time></trkpt><trkpt lat="59.4588038418" lon="31.0834575165"><ele>61.66</ele><time>2026-09-02T12:20:26Z</time></trkpt><trkpt lat="59.4587788638" lon="31.0834664013"><ele>61.66</ele><time>2026-09-02T12:20:36Z</time></trkpt><trkpt lat="59.4589308277" lon="31.0834745318"><ele>61.66</ele><time>2026-09-02T12:21:03Z</time></trkpt><trkpt lat="59.4589868188" lon="31.0833429359"><ele>61.66</ele><time>2026-09-02T12:21:13Z</time></trkpt><trkpt lat="59.4590563886" lon="31.0832091607"><ele>61.66</ele><time>2026-09-02T12:21:26Z</time></trkpt><trkpt lat="59.4590524491" lon="31.0831180494"><ele>61.66</ele><time>2026-09-02T12:21:39Z</time></trkpt><trkpt lat="59.4591539539" lon="31.0830887128"><ele>61.66</ele><time>2026-09-02T12:21:53Z</time></trkpt><trkpt lat="59.4591828715" lon="31.0830088332"><ele>61.66</ele><time>2026-09-02T12:22:06Z</time></trkpt><trkpt lat="59.4592338335" lon="31.0829227511"><ele>61.66</ele><time>2026-09-02T12:22:17Z</time></trkpt><trkpt lat="59.4592354260" lon="31.0827645846"><ele>61.66</ele><time>2026-09-02T12:22:28Z</time></trkpt><trkpt lat="59.4592676964" lon="31.0826795083"><ele>61.66</ele><time>2026-09-02T12:22:40Z</time></trkpt><trkpt lat="59.4593308121" lon="31.0826450586"><ele>61.66</ele><time>2026-09-02T12:22:51Z</time></trkpt><trkpt lat="59.4592725579" lon="31.0825699568"><ele>61.66</ele><time>2026-09-02T12:22:58Z</time></trkpt><trkpt lat="59.4592587277" lon="31.0824981239"><ele>61.66</ele><time>2026-09-02T12:23:25Z</time></trkpt><trkpt lat="59.4592434727" lon="31.0825672746"><ele>62.14</ele><time>2026-09-02T12:23:56Z</time></trkpt><trkpt lat="59.4592356775" lon="31.0826374311"><ele>62.14</ele><time>2026-09-02T12:24:31Z</time></trkpt><trkpt lat="59.4592200872" lon="31.0826528538"><ele>62.14</ele><time>2026-09-02T12:25:05Z</time></trkpt><trkpt lat="59.4592281338" lon="31.0826521832"><ele>62.14</ele><time>2026-09-02T12:25:28Z</time></trkpt><trkpt lat="59.4592659362" lon="31.0826785024"><ele>62.62</ele><time>2026-09-02T12:25:44Z</time></trkpt><trkpt lat="59.4592910819" lon="31.0826469865"><ele>62.62</ele><time>2026-09-02T12:25:52Z</time></trkpt><trkpt lat="59.4593513478" lon="31.0826257803"><ele>62.62</ele><time>2026-09-02T12:26:03Z</time></trkpt><trkpt lat="59.4593840372" lon="31.0826215893"><ele>62.62</ele><time>2026-09-02T12:26:18Z</time></trkpt><trkpt lat="59.4594124518" lon="31.0824880656"><ele>62.62</ele><time>2026-09-02T12:26:31Z</time></trkpt><trkpt lat="59.4594419561" lon="31.0824165680"><ele>62.62</ele><time>2026-09-02T12:26:45Z</time></trkpt><trkpt lat="59.4594354182" lon="31.0824204236"><ele>62.62</ele><time>2026-09-02T12:26:51Z</time></trkpt><trkpt lat="59.4594005495" lon="31.0823079385"><ele>62.62</ele><time>2026-09-02T12:27:23Z</time></trkpt><trkpt lat="59.4593866356" lon="31.0822826251"><ele>62.62</ele><time>2026-09-02T12:27:48Z</time></trkpt><trkpt lat="59.4593546167" lon="31.0825044941"><ele>62.62</ele><time>2026-09-02T12:28:14Z</time></trkpt><trkpt lat="59.4594087638" lon="31.0824853834"><ele>62.62</ele><time>2026-09-02T12:28:17Z</time></trkpt><trkpt lat="59.4594531879" lon="31.0825430509"><ele>62.62</ele><time>2026-09-02T12:28:31Z</time></trkpt><trkpt lat="59.4595136214" lon="31.0826454777"><ele>62.62</ele><time>2026-09-02T12:28:41Z</time></trkpt><trkpt lat="59.4595689420" lon="31.0826699529"><ele>62.62</ele><time>2026-09-02T12:28:50Z</time></trkpt><trkpt lat="59.4596230052" lon="31.0827572085"><ele>62.62</ele><time>2026-09-02T12:29:02Z</time></trkpt><trkpt lat="59.4596399367" lon="31.0828340705"><ele>62.62</ele><time>2026-09-02T12:29:15Z</time></trkpt><trkpt lat="59.4596755598" lon="31.0828624852"><ele>62.62</ele><time>2026-09-02T12:29:29Z</time></trkpt><trkpt lat="59.4597284496" lon="31.0829773173"><ele>62.62</ele><time>2026-09-02T12:29:41Z</time></trkpt><trkpt lat="59.4597748015" lon="31.0830773972"><ele>62.62</ele><time>2026-09-02T12:29:53Z</time></trkpt><trkpt lat="59.4598455448" lon="31.0831712745"><ele>62.62</ele><time>2026-09-02T12:30:05Z</time></trkpt><trkpt lat="59.4598916452" lon="31.0832489748"><ele>62.62</ele><time>2026-09-02T12:30:14Z</time></trkpt><trkpt lat="59.4598987699" lon="31.0834443569"><ele>62.62</ele><time>2026-09-02T12:30:27Z</time></trkpt><trkpt lat="59.4599113427" lon="31.0834766272"><ele>62.62</ele><time>2026-09-02T12:30:49Z</time></trkpt><trkpt lat="59.4599857740" lon="31.0834681615"><ele>62.62</ele><time>2026-09-02T12:31:03Z</time></trkpt><trkpt lat="59.4600425195" lon="31.0834822431"><ele>62.62</ele><time>2026-09-02T12:31:15Z</time></trkpt><trkpt lat="59.4600607082" lon="31.0835320316"><ele>62.62</ele><time>2026-09-02T12:31:28Z</time></trkpt><trkpt lat="59.4600658212" lon="31.0835164413"><ele>62.62</ele><time>2026-09-02T12:31:35Z</time></trkpt><trkpt lat="59.4600799028" lon="31.0834964924"><ele>62.62</ele><time>2026-09-02T12:31:56Z</time></trkpt><trkpt lat="59.4600937329" lon="31.0835796408"><ele>62.62</ele><time>2026-09-02T12:32:11Z</time></trkpt><trkpt lat="59.4601187110" lon="31.0837728437"><ele>62.62</ele><time>2026-09-02T12:32:24Z</time></trkpt><trkpt lat="59.4601436052" lon="31.0837388132"><ele>62.62</ele><time>2026-09-02T12:32:29Z</time></trkpt><trkpt lat="59.4601317029" lon="31.0835892800"><ele>62.62</ele><time>2026-09-02T12:32:47Z</time></trkpt><trkpt lat="59.4601422641" lon="31.0836459417"><ele>62.14</ele><time>2026-09-02T12:33:00Z</time></trkpt><trkpt lat="59.4601185434" lon="31.0837395675"><ele>62.14</ele><time>2026-09-02T12:33:12Z</time></trkpt><trkpt lat="59.4601421803" lon="31.0838152561"><ele>62.14</ele><time>2026-09-02T12:33:26Z</time></trkpt><trkpt lat="59.4602395780" lon="31.0838584229"><ele>62.14</ele><time>2026-09-02T12:33:46Z</time></trkpt><trkpt lat="59.4602654781" lon="31.0839176830"><ele>62.14</ele><time>2026-09-02T12:33:58Z</time></trkpt><trkpt lat="59.4601309486" lon="31.0837716702"><ele>61.18</ele><time>2026-09-02T12:34:17Z</time></trkpt><trkpt lat="59.4601472933" lon="31.0838739295"><ele>61.18</ele><time>2026-09-02T12:34:48Z</time></trkpt><trkpt lat="59.4601935614" lon="31.0839135759"><ele>61.18</ele><time>2026-09-02T12:35:22Z</time></trkpt><trkpt lat="59.4602548331" lon="31.0839102231"><ele>60.70</ele><time>2026-09-02T12:35:53Z</time></trkpt><trkpt lat="59.4601883646" lon="31.0838857479"><ele>60.70</ele><time>2026-09-02T12:36:11Z</time></trkpt><trkpt lat="59.4602736086" lon="31.0838062037"><ele>60.70</ele><time>2026-09-02T12:36:29Z</time></trkpt><trkpt lat="59.4602276757" lon="31.0837347899"><ele>60.70</ele><time>2026-09-02T12:36:40Z</time></trkpt><trkpt lat="59.4602088165" lon="31.0837678984"><ele>60.70</ele><time>2026-09-02T12:36:43Z</time></trkpt><trkpt lat="59.4601892028" lon="31.0838856641"><ele>60.70</ele><time>2026-09-02T12:36:51Z</time></trkpt><trkpt lat="59.4602219760" lon="31.0840490274"><ele>60.70</ele><time>2026-09-02T12:37:04Z</time></trkpt><trkpt lat="59.4603004307" lon="31.0841867421"><ele>61.18</ele><time>2026-09-02T12:37:15Z</time></trkpt><trkpt lat="59.4603133388" lon="31.0842128098"><ele>61.18</ele><time>2026-09-02T12:37:19Z</time></trkpt><trkpt lat="59.4603284262" lon="31.0843066871"><ele>61.18</ele><time>2026-09-02T12:37:32Z</time></trkpt><trkpt lat="59.4603827409" lon="31.0844299011"><ele>61.18</ele><time>2026-09-02T12:37:54Z</time></trkpt><trkpt lat="59.4602941442" lon="31.0844068509"><ele>61.18</ele><time>2026-09-02T12:38:24Z</time></trkpt><trkpt lat="59.4603762869" lon="31.0844319966"><ele>61.18</ele><time>2026-09-02T12:38:45Z</time></trkpt><trkpt lat="59.4603279233" lon="31.0844250396"><ele>61.18</ele><time>2026-09-02T12:39:04Z</time></trkpt><trkpt lat="59.4602955692" lon="31.0843348503"><ele>61.18</ele><time>2026-09-02T12:39:40Z</time></trkpt><trkpt lat="59.4603601098" lon="31.0845084395"><ele>61.66</ele><time>2026-09-02T12:40:02Z</time></trkpt><trkpt lat="59.4603444356" lon="31.0843656119"><ele>61.66</ele><time>2026-09-02T12:40:17Z</time></trkpt><trkpt lat="59.4603447709" lon="31.0843397956"><ele>61.66</ele><time>2026-09-02T12:40:35Z</time></trkpt><trkpt lat="59.4603626244" lon="31.0843434837"><ele>61.66</ele><time>2026-09-02T12:40:37Z</time></trkpt><trkpt lat="59.4604570884" lon="31.0843106266"><ele>61.66</ele><time>2026-09-02T12:40:51Z</time></trkpt><trkpt lat="59.4604536518" lon="31.0842905100"><ele>62.14</ele><time>2026-09-02T12:41:10Z</time></trkpt><trkpt lat="59.4604554959" lon="31.0844133049"><ele>62.14</ele><time>2026-09-02T12:41:21Z</time></trkpt><trkpt lat="59.4604662247" lon="31.0845568031"><ele>62.14</ele><time>2026-09-02T12:41:39Z</time></trkpt><trkpt lat="59.4605305139" lon="31.0845459905"><ele>62.14</ele><time>2026-09-02T12:41:58Z</time></trkpt><trkpt lat="59.4605677295" lon="31.0846246965"><ele>62.14</ele><time>2026-09-02T12:42:11Z</time></trkpt><trkpt lat="59.4605464395" lon="31.0847435519"><ele>62.14</ele><time>2026-09-02T12:42:22Z</time></trkpt><trkpt lat="59.4605264068" lon="31.0848844517"><ele>62.14</ele><time>2026-09-02T12:42:32Z</time></trkpt><trkpt lat="59.4605435897" lon="31.0849793348"><ele>62.14</ele><time>2026-09-02T12:42:38Z</time></trkpt><trkpt lat="59.4606466871" lon="31.0850302968"><ele>62.14</ele><time>2026-09-02T12:42:53Z</time></trkpt><trkpt lat="59.4606766943" lon="31.0850837734"><ele>62.14</ele><time>2026-09-02T12:43:08Z</time></trkpt><trkpt lat="59.4606869202" lon="31.0850586277"><ele>62.14</ele><time>2026-09-02T12:43:10Z</time></trkpt><trkpt lat="59.4607775286" lon="31.0849942546"><ele>62.14</ele><time>2026-09-02T12:43:24Z</time></trkpt><trkpt lat="59.4607989024" lon="31.0850723740"><ele>62.14</ele><time>2026-09-02T12:43:40Z</time></trkpt><trkpt lat="59.4608217012" lon="31.0850894731"><ele>62.14</ele><time>2026-09-02T12:43:43Z</time></trkpt><trkpt lat="59.4608944561" lon="31.0851339810"><ele>62.14</ele><time>2026-09-02T12:43:56Z</time></trkpt><trkpt lat="59.4609101303" lon="31.0851960070"><ele>62.62</ele><time>2026-09-02T12:44:10Z</time></trkpt><trkpt lat="59.4609116390" lon="31.0852373298"><ele>62.62</ele><time>2026-09-02T12:44:18Z</time></trkpt><trkpt lat="59.4609722402" lon="31.0852608830"><ele>62.62</ele><time>2026-09-02T12:44:31Z</time></trkpt><trkpt lat="59.4609838910" lon="31.0854144394"><ele>62.62</ele><time>2026-09-02T12:44:42Z</time></trkpt><trkpt lat="59.4610107969" lon="31.0854420159"><ele>62.62</ele><time>2026-09-02T12:44:50Z</time></trkpt><trkpt lat="59.4611212704" lon="31.0853979271"><ele>62.62</ele><time>2026-09-02T12:45:05Z</time></trkpt><trkpt lat="59.4611370284" lon="31.0854622163"><ele>62.62</ele><time>2026-09-02T12:45:17Z</time></trkpt><trkpt lat="59.4612060115" lon="31.0855328757"><ele>62.62</ele><time>2026-09-02T12:45:30Z</time></trkpt><trkpt lat="59.4612856396" lon="31.0855680797"><ele>62.62</ele><time>2026-09-02T12:45:42Z</time></trkpt><trkpt lat="59.4612913392" lon="31.0856146831"><ele>62.62</ele><time>2026-09-02T12:45:51Z</time></trkpt><trkpt lat="59.4613051694" lon="31.0856810678"><ele>62.62</ele><time>2026-09-02T12:46:02Z</time></trkpt><trkpt lat="59.4613102823" lon="31.0857049562"><ele>62.62</ele><time>2026-09-02T12:46:04Z</time></trkpt><trkpt lat="59.4612910878" lon="31.0858493764"><ele>62.62</ele><time>2026-09-02T12:46:15Z</time></trkpt><trkpt lat="59.4612798560" lon="31.0858869273"><ele>63.10</ele><time>2026-09-02T12:46:19Z</time></trkpt><trkpt lat="59.4613080192" lon="31.0859473608"><ele>63.10</ele><time>2026-09-02T12:46:32Z</time></trkpt><trkpt lat="59.4613727275" lon="31.0860540625"><ele>63.10</ele><time>2026-09-02T12:46:42Z</time></trkpt><trkpt lat="59.4614003040" lon="31.0860774480"><ele>63.10</ele><time>2026-09-02T12:46:44Z</time></trkpt><trkpt lat="59.4613390323" lon="31.0861773603"><ele>63.10</ele><time>2026-09-02T12:46:57Z</time></trkpt><trkpt lat="59.4613392837" lon="31.0862862412"><ele>63.10</ele><time>2026-09-02T12:47:22Z</time></trkpt><trkpt lat="59.4613907486" lon="31.0863084532"><ele>63.10</ele><time>2026-09-02T12:47:30Z</time></trkpt><trkpt lat="59.4615065865" lon="31.0864281468"><ele>63.10</ele><time>2026-09-02T12:47:44Z</time></trkpt><trkpt lat="59.4615603145" lon="31.0865094513"><ele>63.10</ele><time>2026-09-02T12:47:55Z</time></trkpt><trkpt lat="59.4615667686" lon="31.0865031648"><ele>63.10</ele><time>2026-09-02T12:47:56Z</time></trkpt><trkpt lat="59.4615809340" lon="31.0866480041"><ele>63.10</ele><time>2026-09-02T12:48:09Z</time></trkpt><trkpt lat="59.4615789223" lon="31.0866836272"><ele>63.10</ele><time>2026-09-02T12:48:12Z</time></trkpt><trkpt lat="59.4615979493" lon="31.0868621618"><ele>63.10</ele><time>2026-09-02T12:48:27Z</time></trkpt><trkpt lat="59.4616308063" lon="31.0868673585"><ele>63.10</ele><time>2026-09-02T12:48:38Z</time></trkpt><trkpt lat="59.4616629090" lon="31.0868279636"><ele>63.10</ele><time>2026-09-02T12:48:43Z</time></trkpt><trkpt lat="59.4617251866" lon="31.0867955256"><ele>63.10</ele><time>2026-09-02T12:48:57Z</time></trkpt><trkpt lat="59.4617593847" lon="31.0868467391"><ele>63.10</ele><time>2026-09-02T12:49:08Z</time></trkpt><trkpt lat="59.4617804233" lon="31.0869120341"><ele>63.10</ele><time>2026-09-02T12:49:13Z</time></trkpt><trkpt lat="59.4618294574" lon="31.0870336555"><ele>63.10</ele><time>2026-09-02T12:49:25Z</time></trkpt><trkpt lat="59.4618846104" lon="31.0870928317"><ele>63.10</ele><time>2026-09-02T12:49:37Z</time></trkpt><trkpt lat="59.4618996140" lon="31.0871598031"><ele>63.10</ele><time>2026-09-02T12:49:41Z</time></trkpt><trkpt lat="59.4619428646" lon="31.0872935783"><ele>63.10</ele><time>2026-09-02T12:49:54Z</time></trkpt><trkpt lat="59.4619858637" lon="31.0874580313"><ele>63.10</ele><time>2026-09-02T12:50:07Z</time></trkpt><trkpt lat="59.4620028790" lon="31.0875651520"><ele>63.10</ele><time>2026-09-02T12:50:20Z</time></trkpt><trkpt lat="59.4620169606" lon="31.0876812413"><ele>63.10</ele><time>2026-09-02T12:50:26Z</time></trkpt><trkpt lat="59.4620442018" lon="31.0878072213"><ele>63.10</ele><time>2026-09-02T12:50:35Z</time></trkpt><trkpt lat="59.4620898832" lon="31.0878209677"><ele>63.10</ele><time>2026-09-02T12:50:47Z</time></trkpt><trkpt lat="59.4621270988" lon="31.0878389888"><ele>63.10</ele><time>2026-09-02T12:51:07Z</time></trkpt><trkpt lat="59.4622203894" lon="31.0877840035"><ele>63.10</ele><time>2026-09-02T12:51:20Z</time></trkpt><trkpt lat="59.4622194674" lon="31.0878467839"><ele>63.10</ele><time>2026-09-02T12:51:30Z</time></trkpt><trkpt lat="59.4622735307" lon="31.0879005957"><ele>62.62</ele><time>2026-09-02T12:51:41Z</time></trkpt><trkpt lat="59.4622996822" lon="31.0879354645"><ele>62.62</ele><time>2026-09-02T12:51:49Z</time></trkpt><trkpt lat="59.4623755384" lon="31.0880028550"><ele>62.62</ele><time>2026-09-02T12:52:04Z</time></trkpt><trkpt lat="59.4623831660" lon="31.0879917070"><ele>62.62</ele><time>2026-09-02T12:52:06Z</time></trkpt><trkpt lat="59.4624339603" lon="31.0880041961"><ele>62.62</ele><time>2026-09-02T12:52:18Z</time></trkpt><trkpt lat="59.4624455273" lon="31.0879756976"><ele>62.62</ele><time>2026-09-02T12:52:22Z</time></trkpt><trkpt lat="59.4624887779" lon="31.0879881028"><ele>62.62</ele><time>2026-09-02T12:52:33Z</time></trkpt><trkpt lat="59.4625104871" lon="31.0880396515"><ele>62.62</ele><time>2026-09-02T12:52:39Z</time></trkpt><trkpt lat="59.4625498820" lon="31.0881769471"><ele>62.62</ele><time>2026-09-02T12:52:55Z</time></trkpt><trkpt lat="59.4625580963" lon="31.0881748516"><ele>62.62</ele><time>2026-09-02T12:53:14Z</time></trkpt><trkpt lat="59.4625342079" lon="31.0882027633"><ele>62.62</ele><time>2026-09-02T12:53:20Z</time></trkpt><trkpt lat="59.4625423383" lon="31.0882976465"><ele>62.62</ele><time>2026-09-02T12:53:35Z</time></trkpt><trkpt lat="59.4625926297" lon="31.0883111414"><ele>62.62</ele><time>2026-09-02T12:53:44Z</time></trkpt><trkpt lat="59.4626317732" lon="31.0883515421"><ele>62.62</ele><time>2026-09-02T12:53:48Z</time></trkpt><trkpt lat="59.4626718387" lon="31.0883957148"><ele>62.62</ele><time>2026-09-02T12:54:00Z</time></trkpt><trkpt lat="59.4627186935" lon="31.0884698946"><ele>62.14</ele><time>2026-09-02T12:54:12Z</time></trkpt><trkpt lat="59.4627614412" lon="31.0884973034"><ele>62.14</ele><time>2026-09-02T12:54:20Z</time></trkpt><trkpt lat="59.4627851620" lon="31.0886005685"><ele>62.14</ele><time>2026-09-02T12:54:33Z</time></trkpt><trkpt lat="59.4628155045" lon="31.0888055060"><ele>62.14</ele><time>2026-09-02T12:54:46Z</time></trkpt><trkpt lat="59.4627978187" lon="31.0888498463"><ele>62.14</ele><time>2026-09-02T12:54:57Z</time></trkpt><trkpt lat="59.4627672248" lon="31.0888199229"><ele>62.14</ele><time>2026-09-02T12:55:04Z</time></trkpt><trkpt lat="59.4627922866" lon="31.0888564680"><ele>62.14</ele><time>2026-09-02T12:55:29Z</time></trkpt><trkpt lat="59.4628547318" lon="31.0888603237"><ele>62.14</ele><time>2026-09-02T12:55:57Z</time></trkpt><trkpt lat="59.4628537260" lon="31.0889548715"><ele>62.62</ele><time>2026-09-02T12:56:19Z</time></trkpt><trkpt lat="59.4628429972" lon="31.0887582321"><ele>62.62</ele><time>2026-09-02T12:56:38Z</time></trkpt><trkpt lat="59.4628842361" lon="31.0886737425"><ele>62.62</ele><time>2026-09-02T12:56:51Z</time></trkpt><trkpt lat="59.4629351981" lon="31.0886252113"><ele>62.62</ele><time>2026-09-02T12:57:01Z</time></trkpt><trkpt lat="59.4629811309" lon="31.0885219462"><ele>62.62</ele><time>2026-09-02T12:57:10Z</time></trkpt><trkpt lat="59.4630626030" lon="31.0884550586"><ele>62.62</ele><time>2026-09-02T12:57:24Z</time></trkpt><trkpt lat="59.4630635250" lon="31.0884561483"><ele>62.62</ele><time>2026-09-02T12:57:25Z</time></trkpt><trkpt lat="59.4631143194" lon="31.0884287395"><ele>62.62</ele><time>2026-09-02T12:57:40Z</time></trkpt><trkpt lat="59.4631158281" lon="31.0883357003"><ele>62.62</ele><time>2026-09-02T12:57:51Z</time></trkpt><trkpt lat="59.4631643593" lon="31.0882414877"><ele>62.62</ele><time>2026-09-02T12:58:03Z</time></trkpt><trkpt lat="59.4631631020" lon="31.0881483648"><ele>62.62</ele><time>2026-09-02T12:58:15Z</time></trkpt><trkpt lat="59.4631833863" lon="31.0881485324"><ele>62.62</ele><time>2026-09-02T12:58:19Z</time></trkpt><trkpt lat="59.4632737432" lon="31.0881048627"><ele>62.62</ele><time>2026-09-02T12:58:34Z</time></trkpt><trkpt lat="59.4632708933" lon="31.0880533140"><ele>62.62</ele><time>2026-09-02T12:58:45Z</time></trkpt><trkpt lat="59.4632588234" lon="31.0879617836"><ele>62.62</ele><time>2026-09-02T12:58:56Z</time></trkpt><trkpt lat="59.4632285647" lon="31.0879609454"><ele>62.14</ele><time>2026-09-02T12:59:41Z</time></trkpt><trkpt lat="59.4632335100" lon="31.0879791342"><ele>62.14</ele><time>2026-09-02T13:00:18Z</time></trkpt><trkpt lat="59.4632685464" lon="31.0879863426"><ele>62.14</ele><time>2026-09-02T13:01:15Z</time></trkpt><trkpt lat="59.4632729050" lon="31.0879279207"><ele>62.14</ele><time>2026-09-02T13:01:26Z</time></trkpt><trkpt lat="59.4632467534" lon="31.0878975783"><ele>62.14</ele><time>2026-09-02T13:01:36Z</time></trkpt><trkpt lat="59.4631735794" lon="31.0878746957"><ele>62.14</ele><time>2026-09-02T13:01:50Z</time></trkpt><trkpt lat="59.4631386269" lon="31.0878421739"><ele>62.14</ele><time>2026-09-02T13:02:02Z</time></trkpt><trkpt lat="59.4631362800" lon="31.0878140107"><ele>62.14</ele><time>2026-09-02T13:02:11Z</time></trkpt><trkpt lat="59.4630871620" lon="31.0877790581"><ele>62.14</ele><time>2026-09-02T13:02:26Z</time></trkpt><trkpt lat="59.4630609266" lon="31.0877362266"><ele>62.14</ele><time>2026-09-02T13:02:32Z</time></trkpt><trkpt lat="59.4630155805" lon="31.0876312852"><ele>62.14</ele><time>2026-09-02T13:02:44Z</time></trkpt><trkpt lat="59.4629397243" lon="31.0875050537"><ele>62.14</ele><time>2026-09-02T13:02:59Z</time></trkpt><trkpt lat="59.4629526325" lon="31.0873672552"><ele>62.14</ele><time>2026-09-02T13:03:12Z</time></trkpt><trkpt lat="59.4629030116" lon="31.0872971825"><ele>62.14</ele><time>2026-09-02T13:03:25Z</time></trkpt><trkpt lat="59.4628669694" lon="31.0871875472"><ele>62.14</ele><time>2026-09-02T13:03:37Z</time></trkpt><trkpt lat="59.4628654607" lon="31.0871759802"><ele>62.14</ele><time>2026-09-02T13:03:38Z</time></trkpt><trkpt lat="59.4628018420" lon="31.0871050693"><ele>61.66</ele><time>2026-09-02T13:03:52Z</time></trkpt><trkpt lat="59.4627665542" lon="31.0870142933"><ele>61.66</ele><time>2026-09-02T13:04:02Z</time></trkpt><trkpt lat="59.4627253152" lon="31.0869979486"><ele>61.66</ele><time>2026-09-02T13:04:11Z</time></trkpt><trkpt lat="59.4627422467" lon="31.0869122017"><ele>61.66</ele><time>2026-09-02T13:04:23Z</time></trkpt><trkpt lat="59.4627430849" lon="31.0868324060"><ele>61.66</ele><time>2026-09-02T13:04:33Z</time></trkpt><trkpt lat="59.4627344515" lon="31.0867291410"><ele>61.66</ele><time>2026-09-02T13:04:50Z</time></trkpt><trkpt lat="59.4626742695" lon="31.0865871515"><ele>61.66</ele><time>2026-09-02T13:05:01Z</time></trkpt><trkpt lat="59.4626269955" lon="31.0864820424"><ele>61.66</ele><time>2026-09-02T13:05:12Z</time></trkpt><trkpt lat="59.4626149256" lon="31.0863526259"><ele>61.66</ele><time>2026-09-02T13:05:25Z</time></trkpt><trkpt lat="59.4625261612" lon="31.0862722434"><ele>61.66</ele><time>2026-09-02T13:05:38Z</time></trkpt><trkpt lat="59.4624921307" lon="31.0862562340"><ele>61.66</ele><time>2026-09-02T13:05:48Z</time></trkpt><trkpt lat="59.4624772109" lon="31.0862069484"><ele>61.18</ele><time>2026-09-02T13:06:16Z</time></trkpt><trkpt lat="59.4624133408" lon="31.0861968063"><ele>61.18</ele><time>2026-09-02T13:06:28Z</time></trkpt><trkpt lat="59.4623638038" lon="31.0861603450"><ele>61.18</ele><time>2026-09-02T13:06:41Z</time></trkpt><trkpt lat="59.4623486325" lon="31.0860567447"><ele>61.18</ele><time>2026-09-02T13:06:54Z</time></trkpt><trkpt lat="59.4623354729" lon="31.0860093031"><ele>61.18</ele><time>2026-09-02T13:06:58Z</time></trkpt><trkpt lat="59.4622546714" lon="31.0859040264"><ele>61.18</ele><time>2026-09-02T13:07:11Z</time></trkpt><trkpt lat="59.4622139353" lon="31.0858361330"><ele>61.18</ele><time>2026-09-02T13:07:24Z</time></trkpt><trkpt lat="59.4621443655" lon="31.0857713409"><ele>61.18</ele><time>2026-09-02T13:07:38Z</time></trkpt><trkpt lat="59.4621525798" lon="31.0857554991"><ele>61.18</ele><time>2026-09-02T13:07:53Z</time></trkpt><trkpt lat="59.4621785637" lon="31.0857439321"><ele>61.18</ele><time>2026-09-02T13:07:57Z</time></trkpt><trkpt lat="59.4621590339" lon="31.0857790522"><ele>60.22</ele><time>2026-09-02T13:08:17Z</time></trkpt><trkpt lat="59.4621589500" lon="31.0857905354"><ele>60.22</ele><time>2026-09-02T13:08:33Z</time></trkpt><trkpt lat="59.4620837644" lon="31.0857596900"><ele>60.22</ele><time>2026-09-02T13:08:52Z</time></trkpt><trkpt lat="59.4621228240" lon="31.0857875179"><ele>60.22</ele><time>2026-09-02T13:09:12Z</time></trkpt><trkpt lat="59.4621517416" lon="31.0858098138"><ele>60.22</ele><time>2026-09-02T13:09:27Z</time></trkpt><trkpt lat="59.4622537494" lon="31.0859036911"><ele>60.22</ele><time>2026-09-02T13:09:45Z</time></trkpt><trkpt lat="59.4621897954" lon="31.0858566687"><ele>60.22</ele><time>2026-09-02T13:10:02Z</time></trkpt><trkpt lat="59.4621832576" lon="31.0859392304"><ele>60.22</ele><time>2026-09-02T13:10:18Z</time></trkpt><trkpt lat="59.4620549306" lon="31.0860668030"><ele>60.22</ele><time>2026-09-02T13:10:34Z</time></trkpt><trkpt lat="59.4620477222" lon="31.0860512964"><ele>60.22</ele><time>2026-09-02T13:10:41Z</time></trkpt><trkpt lat="59.4620175473" lon="31.0859171860"><ele>60.22</ele><time>2026-09-02T13:10:53Z</time></trkpt><trkpt lat="59.4620235823" lon="31.0857228935"><ele>60.22</ele><time>2026-09-02T13:11:06Z</time></trkpt><trkpt lat="59.4621537533" lon="31.0855532438"><ele>60.22</ele><time>2026-09-02T13:11:21Z</time></trkpt><trkpt lat="59.4621644821" lon="31.0854708496"><ele>60.22</ele><time>2026-09-02T13:11:29Z</time></trkpt><trkpt lat="59.4621182140" lon="31.0852530040"><ele>60.22</ele><time>2026-09-02T13:11:43Z</time></trkpt><trkpt lat="59.4620864466" lon="31.0851520021"><ele>60.22</ele><time>2026-09-02T13:11:49Z</time></trkpt><trkpt lat="59.4619802479" lon="31.0850406904"><ele>60.22</ele><time>2026-09-02T13:12:05Z</time></trkpt><trkpt lat="59.4619716983" lon="31.0849636607"><ele>60.22</ele><time>2026-09-02T13:12:24Z</time></trkpt><trkpt lat="59.4619273581" lon="31.0849823523"><ele>60.22</ele><time>2026-09-02T13:12:45Z</time></trkpt><trkpt lat="59.4619329739" lon="31.0848921631"><ele>60.22</ele><time>2026-09-02T13:12:57Z</time></trkpt><trkpt lat="59.4619275257" lon="31.0848572943"><ele>60.22</ele><time>2026-09-02T13:13:12Z</time></trkpt><trkpt lat="59.4618828502" lon="31.0848994553"><ele>60.22</ele><time>2026-09-02T13:13:23Z</time></trkpt><trkpt lat="59.4617567863" lon="31.0850065760"><ele>60.22</ele><time>2026-09-02T13:13:42Z</time></trkpt><trkpt lat="59.4617786631" lon="31.0850516707"><ele>60.22</ele><time>2026-09-02T13:14:10Z</time></trkpt><trkpt lat="59.4617922418" lon="31.0850913171"><ele>60.22</ele><time>2026-09-02T13:14:29Z</time></trkpt><trkpt lat="59.4618203212" lon="31.0851867031"><ele>60.22</ele><time>2026-09-02T13:14:50Z</time></trkpt><trkpt lat="59.4618034735" lon="31.0850468930"><ele>60.22</ele><time>2026-09-02T13:15:09Z</time></trkpt><trkpt lat="59.4618020486" lon="31.0850338172"><ele>60.22</ele><time>2026-09-02T13:15:11Z</time></trkpt><trkpt lat="59.4617924932" lon="31.0848824400"><ele>60.22</ele><time>2026-09-02T13:15:24Z</time></trkpt><trkpt lat="59.4617764000" lon="31.0848232638"><ele>60.22</ele><time>2026-09-02T13:15:35Z</time></trkpt><trkpt lat="59.4617416151" lon="31.0847970285"><ele>60.22</ele><time>2026-09-02T13:15:47Z</time></trkpt><trkpt lat="59.4616751466" lon="31.0847521853"><ele>60.22</ele><time>2026-09-02T13:15:59Z</time></trkpt><trkpt lat="59.4615801796" lon="31.0846192483"><ele>60.22</ele><time>2026-09-02T13:16:12Z</time></trkpt><trkpt lat="59.4615148008" lon="31.0845896602"><ele>60.22</ele><time>2026-09-02T13:16:24Z</time></trkpt><trkpt lat="59.4614655990" lon="31.0845008958"><ele>60.22</ele><time>2026-09-02T13:16:36Z</time></trkpt><trkpt lat="59.4614641741" lon="31.0844956990"><ele>60.22</ele><time>2026-09-02T13:16:37Z</time></trkpt><trkpt lat="59.4613583945" lon="31.0844180826"><ele>60.22</ele><time>2026-09-02T13:16:57Z</time></trkpt><trkpt lat="59.4614034891" lon="31.0843245406"><ele>60.22</ele><time>2026-09-02T13:17:08Z</time></trkpt><trkpt lat="59.4614713825" lon="31.0842232034"><ele>60.22</ele><time>2026-09-02T13:17:18Z</time></trkpt><trkpt lat="59.4615032338" lon="31.0841299966"><ele>60.22</ele><time>2026-09-02T13:17:28Z</time></trkpt><trkpt lat="59.4615023956" lon="31.0840129014"><ele>60.22</ele><time>2026-09-02T13:17:39Z</time></trkpt><trkpt lat="59.4614850450" lon="31.0839823913"><ele>60.22</ele><time>2026-09-02T13:17:45Z</time></trkpt><trkpt lat="59.4614246953" lon="31.0838215426"><ele>60.22</ele><time>2026-09-02T13:18:00Z</time></trkpt><trkpt lat="59.4613696262" lon="31.0837297607"><ele>60.22</ele><time>2026-09-02T13:18:12Z</time></trkpt><trkpt lat="59.4612829573" lon="31.0836187843"><ele>60.22</ele><time>2026-09-02T13:18:22Z</time></trkpt><trkpt lat="59.4612241164" lon="31.0835281760"><ele>59.74</ele><time>2026-09-02T13:18:33Z</time></trkpt><trkpt lat="59.4611759204" lon="31.0834344663"><ele>59.74</ele><time>2026-09-02T13:18:47Z</time></trkpt><trkpt lat="59.4611751661" lon="31.0833960772"><ele>59.74</ele><time>2026-09-02T13:19:01Z</time></trkpt><trkpt lat="59.4611559715" lon="31.0834345501"><ele>59.74</ele><time>2026-09-02T13:19:14Z</time></trkpt><trkpt lat="59.4611670356" lon="31.0834741965"><ele>59.74</ele><time>2026-09-02T13:19:30Z</time></trkpt><trkpt lat="59.4611509424" lon="31.0835926328"><ele>59.74</ele><time>2026-09-02T13:19:44Z</time></trkpt><trkpt lat="59.4611241203" lon="31.0833551735"><ele>59.74</ele><time>2026-09-02T13:20:05Z</time></trkpt><trkpt lat="59.4611414708" lon="31.0834150203"><ele>59.74</ele><time>2026-09-02T13:20:31Z</time></trkpt><trkpt lat="59.4611170795" lon="31.0834211390"><ele>59.74</ele><time>2026-09-02T13:20:41Z</time></trkpt><trkpt lat="59.4611154869" lon="31.0834927205"><ele>59.74</ele><time>2026-09-02T13:21:00Z</time></trkpt><trkpt lat="59.4611116312" lon="31.0834096558"><ele>59.74</ele><time>2026-09-02T13:21:22Z</time></trkpt><trkpt lat="59.4611051772" lon="31.0833931435"><ele>59.74</ele><time>2026-09-02T13:21:41Z</time></trkpt><trkpt lat="59.4610908441" lon="31.0833401699"><ele>59.74</ele><time>2026-09-02T13:22:01Z</time></trkpt><trkpt lat="59.4610527903" lon="31.0833012778"><ele>59.74</ele><time>2026-09-02T13:22:12Z</time></trkpt><trkpt lat="59.4610409718" lon="31.0832682531"><ele>59.74</ele><time>2026-09-02T13:22:25Z</time></trkpt><trkpt lat="59.4610055164" lon="31.0833002720"><ele>59.74</ele><time>2026-09-02T13:22:35Z</time></trkpt><trkpt lat="59.4609937817" lon="31.0832973383"><ele>59.74</ele><time>2026-09-02T13:22:40Z</time></trkpt><trkpt lat="59.4610115513" lon="31.0832078196"><ele>59.74</ele><time>2026-09-02T13:22:52Z</time></trkpt><trkpt lat="59.4610114675" lon="31.0831337236"><ele>59.74</ele><time>2026-09-02T13:23:04Z</time></trkpt><trkpt lat="59.4609747548" lon="31.0831609648"><ele>59.26</ele><time>2026-09-02T13:23:24Z</time></trkpt><trkpt lat="59.4609875791" lon="31.0830808338"><ele>59.26</ele><time>2026-09-02T13:23:53Z</time></trkpt><trkpt lat="59.4609714858" lon="31.0829660855"><ele>59.26</ele><time>2026-09-02T13:24:02Z</time></trkpt><trkpt lat="59.4609123096" lon="31.0828351602"><ele>59.26</ele><time>2026-09-02T13:24:17Z</time></trkpt><trkpt lat="59.4608633593" lon="31.0827257764"><ele>59.26</ele><time>2026-09-02T13:24:29Z</time></trkpt><trkpt lat="59.4608242158" lon="31.0826184880"><ele>59.26</ele><time>2026-09-02T13:24:44Z</time></trkpt><trkpt lat="59.4608586654" lon="31.0825888161"><ele>59.26</ele><time>2026-09-02T13:25:01Z</time></trkpt><trkpt lat="59.4607679732" lon="31.0825013090"><ele>59.26</ele><time>2026-09-02T13:25:12Z</time></trkpt><trkpt lat="59.4607103895" lon="31.0823264625"><ele>59.26</ele><time>2026-09-02T13:25:24Z</time></trkpt><trkpt lat="59.4606863335" lon="31.0822060984"><ele>59.26</ele><time>2026-09-02T13:25:34Z</time></trkpt><trkpt lat="59.4606865011" lon="31.0820782743"><ele>59.26</ele><time>2026-09-02T13:25:46Z</time></trkpt><trkpt lat="59.4606501237" lon="31.0819683038"><ele>59.26</ele><time>2026-09-02T13:25:57Z</time></trkpt><trkpt lat="59.4606128242" lon="31.0818163399"><ele>58.78</ele><time>2026-09-02T13:26:10Z</time></trkpt><trkpt lat="59.4605516363" lon="31.0817145836"><ele>58.78</ele><time>2026-09-02T13:26:21Z</time></trkpt><trkpt lat="59.4604561664" lon="31.0817042738"><ele>58.78</ele><time>2026-09-02T13:26:33Z</time></trkpt><trkpt lat="59.4604152627" lon="31.0816059541"><ele>58.78</ele><time>2026-09-02T13:26:45Z</time></trkpt><trkpt lat="59.4603883568" lon="31.0816369671"><ele>58.78</ele><time>2026-09-02T13:26:51Z</time></trkpt><trkpt lat="59.4603080582" lon="31.0816101450"><ele>58.78</ele><time>2026-09-02T13:27:03Z</time></trkpt><trkpt lat="59.4602927193" lon="31.0815605242"><ele>58.78</ele><time>2026-09-02T13:27:13Z</time></trkpt><trkpt lat="59.4602068886" lon="31.0815454368"><ele>59.74</ele><time>2026-09-02T13:27:25Z</time></trkpt><trkpt lat="59.4601441920" lon="31.0814586841"><ele>59.74</ele><time>2026-09-02T13:27:36Z</time></trkpt><trkpt lat="59.4601358101" lon="31.0814288445"><ele>59.74</ele><time>2026-09-02T13:27:38Z</time></trkpt><trkpt lat="59.4600437768" lon="31.0813601967"><ele>59.74</ele><time>2026-09-02T13:27:51Z</time></trkpt><trkpt lat="59.4600065611" lon="31.0813244060"><ele>59.74</ele><time>2026-09-02T13:28:02Z</time></trkpt><trkpt lat="59.4599991012" lon="31.0812806524"><ele>59.74</ele><time>2026-09-02T13:28:25Z</time></trkpt><trkpt lat="59.4599842653" lon="31.0812736116"><ele>59.74</ele><time>2026-09-02T13:29:11Z</time></trkpt><trkpt lat="59.4600503147" lon="31.0812183749"><ele>59.74</ele><time>2026-09-02T13:29:33Z</time></trkpt><trkpt lat="59.4600493088" lon="31.0811539181"><ele>59.74</ele><time>2026-09-02T13:29:50Z</time></trkpt><trkpt lat="59.4600595348" lon="31.0810617171"><ele>59.26</ele><time>2026-09-02T13:30:03Z</time></trkpt><trkpt lat="59.4600773882" lon="31.0809820052"><ele>59.26</ele><time>2026-09-02T13:30:15Z</time></trkpt><trkpt lat="59.4601067249" lon="31.0808892176"><ele>59.26</ele><time>2026-09-02T13:30:31Z</time></trkpt><trkpt lat="59.4601713493" lon="31.0808575340"><ele>59.26</ele><time>2026-09-02T13:30:43Z</time></trkpt><trkpt lat="59.4601882808" lon="31.0807279497"><ele>59.26</ele><time>2026-09-02T13:30:56Z</time></trkpt><trkpt lat="59.4602248259" lon="31.0806783289"><ele>59.26</ele><time>2026-09-02T13:31:09Z</time></trkpt><trkpt lat="59.4602517318" lon="31.0806224216"><ele>59.26</ele><time>2026-09-02T13:31:23Z</time></trkpt><trkpt lat="59.4603081420" lon="31.0806828551"><ele>59.26</ele><time>2026-09-02T13:31:38Z</time></trkpt><trkpt lat="59.4603181165" lon="31.0806736350"><ele>59.26</ele><time>2026-09-02T13:31:54Z</time></trkpt><trkpt lat="59.4603180327" lon="31.0806925781"><ele>59.26</ele><time>2026-09-02T13:32:06Z</time></trkpt><trkpt lat="59.4603161048" lon="31.0805798415"><ele>59.26</ele><time>2026-09-02T13:32:17Z</time></trkpt><trkpt lat="59.4603711739" lon="31.0806163866"><ele>58.78</ele><time>2026-09-02T13:32:30Z</time></trkpt><trkpt lat="59.4604000077" lon="31.0805252753"><ele>58.78</ele><time>2026-09-02T13:32:44Z</time></trkpt><trkpt lat="59.4604366366" lon="31.0804298893"><ele>58.30</ele><time>2026-09-02T13:33:05Z</time></trkpt><trkpt lat="59.4604430068" lon="31.0803148057"><ele>58.30</ele><time>2026-09-02T13:33:21Z</time></trkpt><trkpt lat="59.4604467787" lon="31.0802758299"><ele>58.30</ele><time>2026-09-02T13:33:23Z</time></trkpt><trkpt lat="59.4605032727" lon="31.0802027397"><ele>58.30</ele><time>2026-09-02T13:33:39Z</time></trkpt><trkpt lat="59.4605325256" lon="31.0801763367"><ele>58.30</ele><time>2026-09-02T13:33:55Z</time></trkpt><trkpt lat="59.4605419971" lon="31.0801587347"><ele>58.30</ele><time>2026-09-02T13:34:00Z</time></trkpt><trkpt lat="59.4606145006" lon="31.0800915956"><ele>58.30</ele><time>2026-09-02T13:34:18Z</time></trkpt><trkpt lat="59.4606919494" lon="31.0800933558"><ele>58.30</ele><time>2026-09-02T13:34:48Z</time></trkpt><trkpt lat="59.4606764428" lon="31.0801749956"><ele>58.30</ele><time>2026-09-02T13:35:51Z</time></trkpt><trkpt lat="59.4607144129" lon="31.0802143067"><ele>58.30</ele><time>2026-09-02T13:36:10Z</time></trkpt><trkpt lat="59.4607554004" lon="31.0803971998"><ele>58.30</ele><time>2026-09-02T13:36:24Z</time></trkpt><trkpt lat="59.4607870001" lon="31.0804537777"><ele>58.30</ele><time>2026-09-02T13:36:39Z</time></trkpt><trkpt lat="59.4608045183" lon="31.0804844555"><ele>58.30</ele><time>2026-09-02T13:36:43Z</time></trkpt><trkpt lat="59.4608758483" lon="31.0805778299"><ele>58.30</ele><time>2026-09-02T13:36:59Z</time></trkpt><trkpt lat="59.4608961325" lon="31.0806880519"><ele>58.30</ele><time>2026-09-02T13:37:13Z</time></trkpt><trkpt lat="59.4609051850" lon="31.0806826875"><ele>58.30</ele><time>2026-09-02T13:37:17Z</time></trkpt><trkpt lat="59.4609449990" lon="31.0806028079"><ele>58.30</ele><time>2026-09-02T13:37:30Z</time></trkpt><trkpt lat="59.4609867409" lon="31.0806227569"><ele>58.30</ele><time>2026-09-02T13:37:41Z</time></trkpt><trkpt lat="59.4609569013" lon="31.0807537660"><ele>58.30</ele><time>2026-09-02T13:37:52Z</time></trkpt><trkpt lat="59.4610237889" lon="31.0808447935"><ele>58.30</ele><time>2026-09-02T13:38:06Z</time></trkpt><trkpt lat="59.4610511139" lon="31.0810131021"><ele>58.30</ele><time>2026-09-02T13:38:19Z</time></trkpt><trkpt lat="59.4610929396" lon="31.0810925625"><ele>58.30</ele><time>2026-09-02T13:38:30Z</time></trkpt><trkpt lat="59.4611549657" lon="31.0810721107"><ele>58.30</ele><time>2026-09-02T13:38:47Z</time></trkpt><trkpt lat="59.4611516129" lon="31.0810367391"><ele>58.30</ele><time>2026-09-02T13:38:51Z</time></trkpt><trkpt lat="59.4611730706" lon="31.0812235717"><ele>58.30</ele><time>2026-09-02T13:39:06Z</time></trkpt><trkpt lat="59.4610570651" lon="31.0814011842"><ele>58.30</ele><time>2026-09-02T13:39:23Z</time></trkpt><trkpt lat="59.4610901736" lon="31.0813902877"><ele>57.82</ele><time>2026-09-02T13:39:43Z</time></trkpt><trkpt lat="59.4612192549" lon="31.0813048761"><ele>57.82</ele><time>2026-09-02T13:40:02Z</time></trkpt><trkpt lat="59.4612276368" lon="31.0811860207"><ele>57.82</ele><time>2026-09-02T13:40:22Z</time></trkpt><trkpt lat="59.4611413870" lon="31.0811993480"><ele>57.82</ele><time>2026-09-02T13:40:42Z</time></trkpt><trkpt lat="59.4611537084" lon="31.0812595300"><ele>57.82</ele><time>2026-09-02T13:40:56Z</time></trkpt><trkpt lat="59.4610982202" lon="31.0813140124"><ele>57.82</ele><time>2026-09-02T13:41:24Z</time></trkpt><trkpt lat="59.4610889163" lon="31.0811278503"><ele>57.82</ele><time>2026-09-02T13:42:02Z</time></trkpt><trkpt lat="59.4611511100" lon="31.0812311992"><ele>57.82</ele><time>2026-09-02T13:42:31Z</time></trkpt><trkpt lat="59.4611151516" lon="31.0813323688"><ele>57.82</ele><time>2026-09-02T13:42:42Z</time></trkpt><trkpt lat="59.4611718133" lon="31.0814435128"><ele>58.30</ele><time>2026-09-02T13:42:53Z</time></trkpt><trkpt lat="59.4612601586" lon="31.0816109832"><ele>58.30</ele><time>2026-09-02T13:43:07Z</time></trkpt><trkpt lat="59.4612358510" lon="31.0818276554"><ele>58.30</ele><time>2026-09-02T13:43:21Z</time></trkpt><trkpt lat="59.4612730667" lon="31.0819180962"><ele>57.82</ele><time>2026-09-02T13:43:32Z</time></trkpt><trkpt lat="59.4613271300" lon="31.0819462594"><ele>57.82</ele><time>2026-09-02T13:43:43Z</time></trkpt><trkpt lat="59.4614178222" lon="31.0819493607"><ele>57.82</ele><time>2026-09-02T13:43:56Z</time></trkpt><trkpt lat="59.4614764955" lon="31.0820380412"><ele>57.82</ele><time>2026-09-02T13:44:08Z</time></trkpt><trkpt lat="59.4614790939" lon="31.0821418092"><ele>57.82</ele><time>2026-09-02T13:44:20Z</time></trkpt><trkpt lat="59.4614420459" lon="31.0822235327"><ele>57.82</ele><time>2026-09-02T13:44:33Z</time></trkpt><trkpt lat="59.4614563789" lon="31.0823709704"><ele>57.82</ele><time>2026-09-02T13:44:46Z</time></trkpt><trkpt lat="59.4615497533" lon="31.0823075194"><ele>57.82</ele><time>2026-09-02T13:45:00Z</time></trkpt><trkpt lat="59.4616192393" lon="31.0823870637"><ele>57.82</ele><time>2026-09-02T13:45:14Z</time></trkpt><trkpt lat="59.4616434630" lon="31.0825065058"><ele>57.82</ele><time>2026-09-02T13:45:28Z</time></trkpt><trkpt lat="59.4616919942" lon="31.0824620817"><ele>57.82</ele><time>2026-09-02T13:45:45Z</time></trkpt><trkpt lat="59.4617537688" lon="31.0824946873"><ele>57.82</ele><time>2026-09-02T13:45:57Z</time></trkpt><trkpt lat="59.4618133642" lon="31.0825894866"><ele>57.82</ele><time>2026-09-02T13:46:09Z</time></trkpt><trkpt lat="59.4618693553" lon="31.0826604813"><ele>57.82</ele><time>2026-09-02T13:46:27Z</time></trkpt><trkpt lat="59.4618412759" lon="31.0827075038"><ele>57.82</ele><time>2026-09-02T13:46:30Z</time></trkpt><trkpt lat="59.4617858715" lon="31.0828009620"><ele>57.82</ele><time>2026-09-02T13:46:41Z</time></trkpt><trkpt lat="59.4617615640" lon="31.0828052368"><ele>57.82</ele><time>2026-09-02T13:46:43Z</time></trkpt><trkpt lat="59.4616964366" lon="31.0828066617"><ele>57.82</ele><time>2026-09-02T13:46:54Z</time></trkpt><trkpt lat="59.4616392720" lon="31.0828337353"><ele>57.82</ele><time>2026-09-02T13:47:09Z</time></trkpt><trkpt lat="59.4616283756" lon="31.0828437936"><ele>57.82</ele><time>2026-09-02T13:47:20Z</time></trkpt><trkpt lat="59.4616451394" lon="31.0830285307"><ele>57.82</ele><time>2026-09-02T13:47:40Z</time></trkpt><trkpt lat="59.4617226720" lon="31.0831250064"><ele>57.34</ele><time>2026-09-02T13:47:56Z</time></trkpt><trkpt lat="59.4617597200" lon="31.0830475576"><ele>57.34</ele><time>2026-09-02T13:48:14Z</time></trkpt><trkpt lat="59.4617322274" lon="31.0829155426"><ele>57.34</ele><time>2026-09-02T13:48:25Z</time></trkpt><trkpt lat="59.4617210794" lon="31.0827997047"><ele>57.34</ele><time>2026-09-02T13:48:33Z</time></trkpt><trkpt lat="59.4617038127" lon="31.0827513412"><ele>57.34</ele><time>2026-09-02T13:48:36Z</time></trkpt><trkpt lat="59.4616270345" lon="31.0826049093"><ele>57.34</ele><time>2026-09-02T13:48:49Z</time></trkpt><trkpt lat="59.4616433792" lon="31.0825210903"><ele>57.34</ele><time>2026-09-02T13:49:01Z</time></trkpt><trkpt lat="59.4617099315" lon="31.0824671108"><ele>57.34</ele><time>2026-09-02T13:49:12Z</time></trkpt><trkpt lat="59.4617739692" lon="31.0823589005"><ele>57.34</ele><time>2026-09-02T13:49:25Z</time></trkpt><trkpt lat="59.4618130289" lon="31.0824432224"><ele>57.34</ele><time>2026-09-02T13:49:47Z</time></trkpt><trkpt lat="59.4618518371" lon="31.0825614911"><ele>57.34</ele><time>2026-09-02T13:49:59Z</time></trkpt><trkpt lat="59.4619049784" lon="31.0826626606"><ele>57.34</ele><time>2026-09-02T13:50:11Z</time></trkpt><trkpt lat="59.4619143661" lon="31.0828259401"><ele>56.37</ele><time>2026-09-02T13:50:25Z</time></trkpt><trkpt lat="59.4619422778" lon="31.0829289537"><ele>56.37</ele><time>2026-09-02T13:50:36Z</time></trkpt><trkpt lat="59.4619727880" lon="31.0830554366"><ele>56.37</ele><time>2026-09-02T13:50:46Z</time></trkpt><trkpt lat="59.4620408490" lon="31.0832509864"><ele>56.37</ele><time>2026-09-02T13:51:00Z</time></trkpt><trkpt lat="59.4620715268" lon="31.0833521560"><ele>56.37</ele><time>2026-09-02T13:51:13Z</time></trkpt><trkpt lat="59.4621550944" lon="31.0832837597"><ele>56.37</ele><time>2026-09-02T13:51:27Z</time></trkpt><trkpt lat="59.4621645659" lon="31.0832889564"><ele>56.37</ele><time>2026-09-02T13:51:28Z</time></trkpt><trkpt lat="59.4622560125" lon="31.0833146051"><ele>56.37</ele><time>2026-09-02T13:51:46Z</time></trkpt><trkpt lat="59.4622992631" lon="31.0833071452"><ele>56.37</ele><time>2026-09-02T13:52:11Z</time></trkpt><trkpt lat="59.4622147735" lon="31.0833623819"><ele>56.86</ele><time>2026-09-02T13:52:44Z</time></trkpt><trkpt lat="59.4621758815" lon="31.0832496453"><ele>56.86</ele><time>2026-09-02T13:53:01Z</time></trkpt><trkpt lat="59.4621345587" lon="31.0832022876"><ele>56.86</ele><time>2026-09-02T13:53:18Z</time></trkpt><trkpt lat="59.4620762207" lon="31.0831336398"><ele>57.34</ele><time>2026-09-02T13:53:47Z</time></trkpt><trkpt lat="59.4621016178" lon="31.0831429437"><ele>57.34</ele><time>2026-09-02T13:54:10Z</time></trkpt><trkpt lat="59.4621034618" lon="31.0831267666"><ele>56.86</ele><time>2026-09-02T13:54:30Z</time></trkpt><trkpt lat="59.4620837644" lon="31.0830960888"><ele>57.34</ele><time>2026-09-02T13:54:42Z</time></trkpt><trkpt lat="59.4621048868" lon="31.0832324624"><ele>56.86</ele><time>2026-09-02T13:56:02Z</time></trkpt><trkpt lat="59.4620523322" lon="31.0831968393"><ele>56.86</ele><time>2026-09-02T13:56:29Z</time></trkpt><trkpt lat="59.4621004444" lon="31.0830333084"><ele>56.86</ele><time>2026-09-02T13:57:06Z</time></trkpt><trkpt lat="59.4621367380" lon="31.0831973422"><ele>56.86</ele><time>2026-09-02T13:57:45Z</time></trkpt><trkpt lat="59.4620879553" lon="31.0830391757"><ele>56.86</ele><time>2026-09-02T13:58:20Z</time></trkpt><trkpt lat="59.4621048868" lon="31.0831401777"><ele>55.89</ele><time>2026-09-02T14:00:05Z</time></trkpt><trkpt lat="59.4620833453" lon="31.0831831768"><ele>55.89</ele><time>2026-09-02T14:00:59Z</time></trkpt><trkpt lat="59.4621074013" lon="31.0832654871"><ele>55.41</ele><time>2026-09-02T14:02:22Z</time></trkpt><trkpt lat="59.4621055573" lon="31.0832808260"><ele>55.41</ele><time>2026-09-02T14:02:36Z</time></trkpt><trkpt lat="59.4621322956" lon="31.0833353084"><ele>55.41</ele><time>2026-09-02T14:03:04Z</time></trkpt><trkpt lat="59.4620993547" lon="31.0833809059"><ele>56.86</ele><time>2026-09-02T14:03:09Z</time></trkpt><trkpt lat="59.4620170444" lon="31.0834223125"><ele>56.86</ele><time>2026-09-02T14:03:58Z</time></trkpt><trkpt lat="59.4620205648" lon="31.0833983403"><ele>56.86</ele><time>2026-09-02T14:04:02Z</time></trkpt><trkpt lat="59.4620953314" lon="31.0832103342"><ele>56.37</ele><time>2026-09-02T14:04:41Z</time></trkpt><trkpt lat="59.4621039648" lon="31.0833117552"><ele>55.89</ele><time>2026-09-02T14:04:59Z</time></trkpt><trkpt lat="59.4621086586" lon="31.0832612962"><ele>55.89</ele><time>2026-09-02T14:05:35Z</time></trkpt><trkpt lat="59.4620745443" lon="31.0833516531"><ele>55.89</ele><time>2026-09-02T14:05:45Z</time></trkpt><trkpt lat="59.4620179664" lon="31.0833281837"><ele>55.89</ele><time>2026-09-02T14:05:57Z</time></trkpt><trkpt lat="59.4619272742" lon="31.0832338035"><ele>55.89</ele><time>2026-09-02T14:06:10Z</time></trkpt><trkpt lat="59.4618626498" lon="31.0831697658"><ele>55.89</ele><time>2026-09-02T14:06:20Z</time></trkpt><trkpt lat="59.4617997017" lon="31.0831801593"><ele>55.89</ele><time>2026-09-02T14:06:29Z</time></trkpt><trkpt lat="59.4617374241" lon="31.0831351485"><ele>55.89</ele><time>2026-09-02T14:06:39Z</time></trkpt><trkpt lat="59.4616505038" lon="31.0831090808"><ele>55.89</ele><time>2026-09-02T14:06:52Z</time></trkpt><trkpt lat="59.4615834486" lon="31.0830985196"><ele>55.89</ele><time>2026-09-02T14:07:02Z</time></trkpt><trkpt lat="59.4615229312" lon="31.0831193905"><ele>55.89</ele><time>2026-09-02T14:07:12Z</time></trkpt><trkpt lat="59.4614263717" lon="31.0831005313"><ele>55.89</ele><time>2026-09-02T14:07:25Z</time></trkpt><trkpt lat="59.4613331649" lon="31.0830274411"><ele>55.41</ele><time>2026-09-02T14:07:39Z</time></trkpt><trkpt lat="59.4612896629" lon="31.0828870442"><ele>55.41</ele><time>2026-09-02T14:07:49Z</time></trkpt><trkpt lat="59.4612525310" lon="31.0827889759"><ele>55.41</ele><time>2026-09-02T14:07:59Z</time></trkpt><trkpt lat="59.4612630084" lon="31.0827150475"><ele>55.41</ele><time>2026-09-02T14:08:12Z</time></trkpt><trkpt lat="59.4612563029" lon="31.0825649276"><ele>55.41</ele><time>2026-09-02T14:08:37Z</time></trkpt><trkpt lat="59.4612388685" lon="31.0826252773"><ele>55.41</ele><time>2026-09-02T14:09:01Z</time></trkpt><trkpt lat="59.4612264633" lon="31.0826180689"><ele>55.41</ele><time>2026-09-02T14:09:09Z</time></trkpt><trkpt lat="59.4612057600" lon="31.0826839507"><ele>55.41</ele><time>2026-09-02T14:09:20Z</time></trkpt><trkpt lat="59.4611502718" lon="31.0828217492"><ele>55.41</ele><time>2026-09-02T14:09:31Z</time></trkpt><trkpt lat="59.4610988069" lon="31.0829461366"><ele>55.41</ele><time>2026-09-02T14:09:43Z</time></trkpt><trkpt lat="59.4610452466" lon="31.0830569454"><ele>55.41</ele><time>2026-09-02T14:09:53Z</time></trkpt><trkpt lat="59.4610000681" lon="31.0831552651"><ele>55.41</ele><time>2026-09-02T14:10:05Z</time></trkpt><trkpt lat="59.4609330129" lon="31.0831851047"><ele>55.41</ele><time>2026-09-02T14:10:17Z</time></trkpt><trkpt lat="59.4608682208" lon="31.0833032057"><ele>55.41</ele><time>2026-09-02T14:10:29Z</time></trkpt><trkpt lat="59.4608171750" lon="31.0834436025"><ele>54.45</ele><time>2026-09-02T14:10:40Z</time></trkpt><trkpt lat="59.4607696496" lon="31.0835115798"><ele>54.45</ele><time>2026-09-02T14:10:52Z</time></trkpt><trkpt lat="59.4607662130" lon="31.0835510585"><ele>54.45</ele><time>2026-09-02T14:10:55Z</time></trkpt><trkpt lat="59.4606752694" lon="31.0835913755"><ele>54.45</ele><time>2026-09-02T14:11:07Z</time></trkpt><trkpt lat="59.4606022630" lon="31.0835995059"><ele>54.45</ele><time>2026-09-02T14:11:18Z</time></trkpt><trkpt lat="59.4605409075" lon="31.0835764557"><ele>54.45</ele><time>2026-09-02T14:11:29Z</time></trkpt><trkpt lat="59.4605034404" lon="31.0836598556"><ele>54.45</ele><time>2026-09-02T14:11:36Z</time></trkpt><trkpt lat="59.4604715053" lon="31.0838694032"><ele>54.45</ele><time>2026-09-02T14:11:48Z</time></trkpt><trkpt lat="59.4603956491" lon="31.0839729197"><ele>54.45</ele><time>2026-09-02T14:12:00Z</time></trkpt><trkpt lat="59.4603570085" lon="31.0840633605"><ele>53.97</ele><time>2026-09-02T14:12:14Z</time></trkpt><trkpt lat="59.4602716807" lon="31.0840880871"><ele>53.97</ele><time>2026-09-02T14:12:25Z</time></trkpt><trkpt lat="59.4601995125" lon="31.0841495264"><ele>53.97</ele><time>2026-09-02T14:12:36Z</time></trkpt><trkpt lat="59.4601168670" lon="31.0841926932"><ele>53.97</ele><time>2026-09-02T14:12:49Z</time></trkpt><trkpt lat="59.4600234088" lon="31.0842662863"><ele>53.97</ele><time>2026-09-02T14:13:00Z</time></trkpt><trkpt lat="59.4599275198" lon="31.0843035858"><ele>53.97</ele><time>2026-09-02T14:13:12Z</time></trkpt><trkpt lat="59.4598274399" lon="31.0843568109"><ele>53.97</ele><time>2026-09-02T14:13:24Z</time></trkpt><trkpt lat="59.4597396813" lon="31.0843948647"><ele>53.97</ele><time>2026-09-02T14:13:36Z</time></trkpt><trkpt lat="59.4596225861" lon="31.0844439827"><ele>53.97</ele><time>2026-09-02T14:13:49Z</time></trkpt><trkpt lat="59.4595432933" lon="31.0844463296"><ele>53.49</ele><time>2026-09-02T14:14:00Z</time></trkpt><trkpt lat="59.4594877213" lon="31.0844501015"><ele>53.49</ele><time>2026-09-02T14:14:11Z</time></trkpt><trkpt lat="59.4594048243" lon="31.0843646899"><ele>53.49</ele><time>2026-09-02T14:14:24Z</time></trkpt><trkpt lat="59.4593690336" lon="31.0844017379"><ele>53.49</ele><time>2026-09-02T14:14:34Z</time></trkpt><trkpt lat="59.4593174849" lon="31.0844547953"><ele>53.49</ele><time>2026-09-02T14:14:40Z</time></trkpt><trkpt lat="59.4592454843" lon="31.0844556335"><ele>53.49</ele><time>2026-09-02T14:14:53Z</time></trkpt><trkpt lat="59.4591692928" lon="31.0844371095"><ele>53.49</ele><time>2026-09-02T14:15:05Z</time></trkpt><trkpt lat="59.4591558818" lon="31.0843916796"><ele>53.49</ele><time>2026-09-02T14:15:08Z</time></trkpt><trkpt lat="59.4590655249" lon="31.0842889175"><ele>53.49</ele><time>2026-09-02T14:15:21Z</time></trkpt><trkpt lat="59.4590447377" lon="31.0842327587"><ele>53.49</ele><time>2026-09-02T14:15:26Z</time></trkpt><trkpt lat="59.4589675404" lon="31.0841778573"><ele>53.49</ele><time>2026-09-02T14:15:39Z</time></trkpt><trkpt lat="59.4588803686" lon="31.0842655320"><ele>53.49</ele><time>2026-09-02T14:15:52Z</time></trkpt><trkpt lat="59.4588531274" lon="31.0843265522"><ele>53.49</ele><time>2026-09-02T14:15:57Z</time></trkpt><trkpt lat="59.4588002376" lon="31.0844987165"><ele>53.49</ele><time>2026-09-02T14:16:09Z</time></trkpt><trkpt lat="59.4587187655" lon="31.0846019816"><ele>53.49</ele><time>2026-09-02T14:16:21Z</time></trkpt><trkpt lat="59.4586282410" lon="31.0846044961"><ele>53.49</ele><time>2026-09-02T14:16:32Z</time></trkpt><trkpt lat="59.4586274866" lon="31.0846161470"><ele>53.49</ele><time>2026-09-02T14:16:33Z</time></trkpt><trkpt lat="59.4586655404" lon="31.0847867187"><ele>53.49</ele><time>2026-09-02T14:16:45Z</time></trkpt><trkpt lat="59.4586509559" lon="31.0849299654"><ele>53.49</ele><time>2026-09-02T14:16:54Z</time></trkpt><trkpt lat="59.4585264008" lon="31.0848099366"><ele>53.01</ele><time>2026-09-02T14:17:10Z</time></trkpt><trkpt lat="59.4584398996" lon="31.0848383512"><ele>53.01</ele><time>2026-09-02T14:17:24Z</time></trkpt><trkpt lat="59.4583831541" lon="31.0848645028"><ele>53.01</ele><time>2026-09-02T14:17:37Z</time></trkpt><trkpt lat="59.4583326112" lon="31.0849056579"><ele>53.01</ele><time>2026-09-02T14:17:53Z</time></trkpt><trkpt lat="59.4582819846" lon="31.0848878883"><ele>53.01</ele><time>2026-09-02T14:18:02Z</time></trkpt><trkpt lat="59.4582462776" lon="31.0849282891"><ele>53.01</ele><time>2026-09-02T14:18:13Z</time></trkpt><trkpt lat="59.4581515621" lon="31.0849224217"><ele>53.01</ele><time>2026-09-02T14:18:25Z</time></trkpt><trkpt lat="59.4580974989" lon="31.0849855375"><ele>53.01</ele><time>2026-09-02T14:18:36Z</time></trkpt><trkpt lat="59.4580179546" lon="31.0849916562"><ele>53.01</ele><time>2026-09-02T14:18:50Z</time></trkpt><trkpt lat="59.4579942338" lon="31.0850065760"><ele>53.01</ele><time>2026-09-02T14:19:06Z</time></trkpt><trkpt lat="59.4580176193" lon="31.0851614736"><ele>53.01</ele><time>2026-09-02T14:19:30Z</time></trkpt><trkpt lat="59.4580099918" lon="31.0852908064"><ele>53.01</ele><time>2026-09-02T14:19:45Z</time></trkpt><trkpt lat="59.4579410926" lon="31.0853873659"><ele>53.01</ele><time>2026-09-02T14:19:58Z</time></trkpt><trkpt lat="59.4579692557" lon="31.0853788164"><ele>53.01</ele><time>2026-09-02T14:20:07Z</time></trkpt><trkpt lat="59.4579878636" lon="31.0853871983"><ele>53.01</ele><time>2026-09-02T14:20:09Z</time></trkpt><trkpt lat="59.4580344670" lon="31.0854820814"><ele>53.01</ele><time>2026-09-02T14:20:25Z</time></trkpt><trkpt lat="59.4580823276" lon="31.0855379049"><ele>53.01</ele><time>2026-09-02T14:20:39Z</time></trkpt><trkpt lat="59.4580766279" lon="31.0856419243"><ele>53.01</ele><time>2026-09-02T14:20:52Z</time></trkpt><trkpt lat="59.4580972474" lon="31.0856391583"><ele>53.01</ele><time>2026-09-02T14:21:10Z</time></trkpt><trkpt lat="59.4581220578" lon="31.0856601968"><ele>53.01</ele><time>2026-09-02T14:21:21Z</time></trkpt><trkpt lat="59.4581751991" lon="31.0856386553"><ele>53.01</ele><time>2026-09-02T14:21:35Z</time></trkpt><trkpt lat="59.4581668172" lon="31.0858167708"><ele>53.01</ele><time>2026-09-02T14:21:50Z</time></trkpt><trkpt lat="59.4582451042" lon="31.0858699121"><ele>53.01</ele><time>2026-09-02T14:22:06Z</time></trkpt><trkpt lat="59.4582853373" lon="31.0859445110"><ele>53.01</ele><time>2026-09-02T14:22:23Z</time></trkpt><trkpt lat="59.4582535699" lon="31.0861419048"><ele>53.01</ele><time>2026-09-02T14:22:36Z</time></trkpt><trkpt lat="59.4582643826" lon="31.0861537233"><ele>53.01</ele><time>2026-09-02T14:22:38Z</time></trkpt><trkpt lat="59.4583606906" lon="31.0861054435"><ele>53.01</ele><time>2026-09-02T14:22:52Z</time></trkpt><trkpt lat="59.4584201183" lon="31.0861258954"><ele>53.01</ele><time>2026-09-02T14:23:04Z</time></trkpt><trkpt lat="59.4585106429" lon="31.0861681402"><ele>53.01</ele><time>2026-09-02T14:23:16Z</time></trkpt><trkpt lat="59.4585041050" lon="31.0863641091"><ele>53.01</ele><time>2026-09-02T14:23:28Z</time></trkpt><trkpt lat="59.4585264008" lon="31.0863854829"><ele>53.01</ele><time>2026-09-02T14:23:32Z</time></trkpt><trkpt lat="59.4585455954" lon="31.0864859819"><ele>53.01</ele><time>2026-09-02T14:23:47Z</time></trkpt><trkpt lat="59.4584859163" lon="31.0865517799"><ele>53.01</ele><time>2026-09-02T14:24:00Z</time></trkpt><trkpt lat="59.4584929571" lon="31.0864570644"><ele>52.53</ele><time>2026-09-02T14:24:13Z</time></trkpt><trkpt lat="59.4584385585" lon="31.0867016483"><ele>52.53</ele><time>2026-09-02T14:24:27Z</time></trkpt><trkpt lat="59.4584707450" lon="31.0866335873"><ele>51.57</ele><time>2026-09-02T14:24:45Z</time></trkpt><trkpt lat="59.4584821444" lon="31.0864836350"><ele>51.57</ele><time>2026-09-02T14:24:58Z</time></trkpt><trkpt lat="59.4585768599" lon="31.0863893386"><ele>51.57</ele><time>2026-09-02T14:25:15Z</time></trkpt><trkpt lat="59.4585230481" lon="31.0864901729"><ele>51.57</ele><time>2026-09-02T14:25:30Z</time></trkpt><trkpt lat="59.4584408216" lon="31.0866438132"><ele>51.57</ele><time>2026-09-02T14:25:45Z</time></trkpt><trkpt lat="59.4583980739" lon="31.0865567252"><ele>53.01</ele><time>2026-09-02T14:26:17Z</time></trkpt><trkpt lat="59.4583556615" lon="31.0865868162"><ele>53.01</ele><time>2026-09-02T14:26:28Z</time></trkpt><trkpt lat="59.4583205413" lon="31.0866066813"><ele>52.53</ele><time>2026-09-02T14:26:37Z</time></trkpt><trkpt lat="59.4583275821" lon="31.0866225231"><ele>52.53</ele><time>2026-09-02T14:26:49Z</time></trkpt><trkpt lat="59.4582793862" lon="31.0867311526"><ele>53.49</ele><time>2026-09-02T14:27:12Z</time></trkpt><trkpt lat="59.4582624547" lon="31.0867495090"><ele>53.49</ele><time>2026-09-02T14:27:23Z</time></trkpt><trkpt lat="59.4582244009" lon="31.0867794324"><ele>52.53</ele><time>2026-09-02T14:27:32Z</time></trkpt><trkpt lat="59.4582151808" lon="31.0869306419"><ele>52.53</ele><time>2026-09-02T14:27:43Z</time></trkpt><trkpt lat="59.4581584353" lon="31.0870558675"><ele>52.53</ele><time>2026-09-02T14:27:57Z</time></trkpt><trkpt lat="59.4581545796" lon="31.0872128606"><ele>52.53</ele><time>2026-09-02T14:28:07Z</time></trkpt><trkpt lat="59.4580901228" lon="31.0873613041"><ele>52.53</ele><time>2026-09-02T14:28:20Z</time></trkpt><trkpt lat="59.4580311142" lon="31.0874889605"><ele>52.53</ele><time>2026-09-02T14:28:31Z</time></trkpt><trkpt lat="59.4579991791" lon="31.0874881223"><ele>52.53</ele><time>2026-09-02T14:28:40Z</time></trkpt><trkpt lat="59.4580110814" lon="31.0875752941"><ele>52.53</ele><time>2026-09-02T14:28:56Z</time></trkpt><trkpt lat="59.4580318686" lon="31.0875771381"><ele>52.05</ele><time>2026-09-02T14:29:20Z</time></trkpt><trkpt lat="59.4580356404" lon="31.0876589455"><ele>52.05</ele><time>2026-09-02T14:29:32Z</time></trkpt><trkpt lat="59.4580246601" lon="31.0876417626"><ele>52.05</ele><time>2026-09-02T14:29:49Z</time></trkpt><trkpt lat="59.4580508117" lon="31.0877536610"><ele>52.05</ele><time>2026-09-02T14:29:57Z</time></trkpt><trkpt lat="59.4580410887" lon="31.0878332891"><ele>52.05</ele><time>2026-09-02T14:30:10Z</time></trkpt><trkpt lat="59.4580545835" lon="31.0879105702"><ele>52.05</ele><time>2026-09-02T14:30:39Z</time></trkpt><trkpt lat="59.4580011908" lon="31.0878917947"><ele>52.05</ele><time>2026-09-02T14:31:02Z</time></trkpt><trkpt lat="59.4580126740" lon="31.0880172718"><ele>52.05</ele><time>2026-09-02T14:31:15Z</time></trkpt><trkpt lat="59.4579335488" lon="31.0880421661"><ele>52.05</ele><time>2026-09-02T14:31:29Z</time></trkpt><trkpt lat="59.4579181261" lon="31.0878755338"><ele>51.09</ele><time>2026-09-02T14:31:47Z</time></trkpt><trkpt lat="59.4578907173" lon="31.0878656432"><ele>50.61</ele><time>2026-09-02T14:32:01Z</time></trkpt><trkpt lat="59.4578752946" lon="31.0878775455"><ele>52.05</ele><time>2026-09-02T14:32:21Z</time></trkpt><trkpt lat="59.4578470476" lon="31.0878991708"><ele>52.05</ele><time>2026-09-02T14:32:39Z</time></trkpt><trkpt lat="59.4578179624" lon="31.0878549982"><ele>52.05</ele><time>2026-09-02T14:32:58Z</time></trkpt><trkpt lat="59.4578168727" lon="31.0879520606"><ele>52.53</ele><time>2026-09-02T14:33:12Z</time></trkpt><trkpt lat="59.4578680024" lon="31.0879832413"><ele>52.53</ele><time>2026-09-02T14:33:24Z</time></trkpt><trkpt lat="59.4578799885" lon="31.0880267434"><ele>52.53</ele><time>2026-09-02T14:33:34Z</time></trkpt><trkpt lat="59.4578248356" lon="31.0880662221"><ele>52.53</ele><time>2026-09-02T14:33:47Z</time></trkpt><trkpt lat="59.4577953313" lon="31.0880078003"><ele>52.53</ele><time>2026-09-02T14:34:06Z</time></trkpt><trkpt lat="59.4577718619" lon="31.0880640429"><ele>52.53</ele><time>2026-09-02T14:34:24Z</time></trkpt><trkpt lat="59.4577752147" lon="31.0881025158"><ele>52.53</ele><time>2026-09-02T14:34:39Z</time></trkpt><trkpt lat="59.4577642344" lon="31.0881497059"><ele>52.53</ele><time>2026-09-02T14:34:59Z</time></trkpt><trkpt lat="59.4577623066" lon="31.0881611053"><ele>52.53</ele><time>2026-09-02T14:35:17Z</time></trkpt><trkpt lat="59.4577244204" lon="31.0881174356"><ele>51.57</ele><time>2026-09-02T14:35:29Z</time></trkpt><trkpt lat="59.4577392563" lon="31.0880634561"><ele>51.57</ele><time>2026-09-02T14:35:48Z</time></trkpt><trkpt lat="59.4577395916" lon="31.0881237220"><ele>51.57</ele><time>2026-09-02T14:36:00Z</time></trkpt><trkpt lat="59.4577181339" lon="31.0881534778"><ele>51.57</ele><time>2026-09-02T14:36:15Z</time></trkpt><trkpt lat="59.4577232469" lon="31.0881320201"><ele>51.57</ele><time>2026-09-02T14:36:32Z</time></trkpt><trkpt lat="59.4577159546" lon="31.0881127417"><ele>51.57</ele><time>2026-09-02T14:36:53Z</time></trkpt><trkpt lat="59.4577054773" lon="31.0880892724"><ele>51.57</ele><time>2026-09-02T14:37:17Z</time></trkpt><trkpt lat="59.4576910604" lon="31.0880650487"><ele>51.57</ele><time>2026-09-02T14:37:27Z</time></trkpt><trkpt lat="59.4576585386" lon="31.0881183576"><ele>51.57</ele><time>2026-09-02T14:37:34Z</time></trkpt><trkpt lat="59.4576369971" lon="31.0880232230"><ele>51.57</ele><time>2026-09-02T14:37:51Z</time></trkpt><trkpt lat="59.4576349854" lon="31.0880043637"><ele>51.57</ele><time>2026-09-02T14:38:05Z</time></trkpt><trkpt lat="59.4576415233" lon="31.0880353767"><ele>51.57</ele><time>2026-09-02T14:38:28Z</time></trkpt><trkpt lat="59.4576156233" lon="31.0880982410"><ele>51.57</ele><time>2026-09-02T14:38:41Z</time></trkpt><trkpt lat="59.4575192314" lon="31.0880233906"><ele>51.57</ele><time>2026-09-02T14:38:59Z</time></trkpt><trkpt lat="59.4574568700" lon="31.0880244803"><ele>51.57</ele><time>2026-09-02T14:39:17Z</time></trkpt><trkpt lat="59.4574350771" lon="31.0880176071"><ele>51.57</ele><time>2026-09-02T14:39:32Z</time></trkpt><trkpt lat="59.4574030582" lon="31.0880272463"><ele>51.57</ele><time>2026-09-02T14:39:49Z</time></trkpt><trkpt lat="59.4573622383" lon="31.0879978258"><ele>51.57</ele><time>2026-09-02T14:40:03Z</time></trkpt><trkpt lat="59.4573267829" lon="31.0880721733"><ele>51.57</ele><time>2026-09-02T14:40:20Z</time></trkpt><trkpt lat="59.4573027268" lon="31.0882093851"><ele>51.57</ele><time>2026-09-02T14:40:35Z</time></trkpt><trkpt lat="59.4572242722" lon="31.0882067028"><ele>51.57</ele><time>2026-09-02T14:40:48Z</time></trkpt><trkpt lat="59.4571626652" lon="31.0881467722"><ele>51.57</ele><time>2026-09-02T14:41:07Z</time></trkpt><trkpt lat="59.4570850488" lon="31.0880774539"><ele>51.57</ele><time>2026-09-02T14:41:36Z</time></trkpt><trkpt lat="59.4570031576" lon="31.0880950559"><ele>51.57</ele><time>2026-09-02T14:41:49Z</time></trkpt><trkpt lat="59.4568944443" lon="31.0880724248"><ele>51.57</ele><time>2026-09-02T14:42:05Z</time></trkpt><trkpt lat="59.4567866530" lon="31.0881553218"><ele>52.05</ele><time>2026-09-02T14:42:25Z</time></trkpt><trkpt lat="59.4567387085" lon="31.0881155077"><ele>52.05</ele><time>2026-09-02T14:42:37Z</time></trkpt><trkpt lat="59.4566568173" lon="31.0880708322"><ele>52.05</ele><time>2026-09-02T14:42:52Z</time></trkpt><trkpt lat="59.4565869123" lon="31.0881562438"><ele>52.05</ele><time>2026-09-02T14:43:08Z</time></trkpt><trkpt lat="59.4565147441" lon="31.0880964808"><ele>52.05</ele><time>2026-09-02T14:43:27Z</time></trkpt><trkpt lat="59.4564703200" lon="31.0880300961"><ele>52.05</ele><time>2026-09-02T14:43:37Z</time></trkpt><trkpt lat="59.4563777838" lon="31.0880021006"><ele>52.05</ele><time>2026-09-02T14:43:49Z</time></trkpt><trkpt lat="59.4563420769" lon="31.0879727639"><ele>52.05</ele><time>2026-09-02T14:43:55Z</time></trkpt><trkpt lat="59.4562529773" lon="31.0879629571"><ele>52.05</ele><time>2026-09-02T14:44:03Z</time></trkpt><trkpt lat="59.4561370555" lon="31.0879125819"><ele>52.05</ele><time>2026-09-02T14:44:17Z</time></trkpt><trkpt lat="59.4560431782" lon="31.0878577642"><ele>52.05</ele><time>2026-09-02T14:44:31Z</time></trkpt><trkpt lat="59.4560130872" lon="31.0877826624"><ele>52.05</ele><time>2026-09-02T14:44:42Z</time></trkpt><trkpt lat="59.4560094830" lon="31.0877851769"><ele>52.05</ele><time>2026-09-02T14:44:43Z</time></trkpt><trkpt lat="59.4560240675" lon="31.0878218897"><ele>52.05</ele><time>2026-09-02T14:45:02Z</time></trkpt><trkpt lat="59.4559754524" lon="31.0877951514"><ele>52.05</ele><time>2026-09-02T14:45:20Z</time></trkpt><trkpt lat="59.4558948185" lon="31.0877991747"><ele>52.05</ele><time>2026-09-02T14:45:32Z</time></trkpt><trkpt lat="59.4558226503" lon="31.0876612086"><ele>53.01</ele><time>2026-09-02T14:45:45Z</time></trkpt><trkpt lat="59.4558039587" lon="31.0876559280"><ele>53.01</ele><time>2026-09-02T14:45:48Z</time></trkpt><trkpt lat="59.4557262585" lon="31.0876013618"><ele>53.01</ele><time>2026-09-02T14:46:02Z</time></trkpt><trkpt lat="59.4556515757" lon="31.0875722766"><ele>53.01</ele><time>2026-09-02T14:46:13Z</time></trkpt><trkpt lat="59.4555494003" lon="31.0875388328"><ele>53.01</ele><time>2026-09-02T14:46:26Z</time></trkpt><trkpt lat="59.4554470573" lon="31.0874398425"><ele>53.01</ele><time>2026-09-02T14:46:41Z</time></trkpt><trkpt lat="59.4553850312" lon="31.0873551015"><ele>53.01</ele><time>2026-09-02T14:46:53Z</time></trkpt><trkpt lat="59.4553730451" lon="31.0872301273"><ele>53.01</ele><time>2026-09-02T14:47:03Z</time></trkpt><trkpt lat="59.4553399365" lon="31.0871399380"><ele>53.49</ele><time>2026-09-02T14:47:14Z</time></trkpt><trkpt lat="59.4552668463" lon="31.0871018004"><ele>53.49</ele><time>2026-09-02T14:47:25Z</time></trkpt><trkpt lat="59.4552189857" lon="31.0870993696"><ele>53.49</ele><time>2026-09-02T14:47:37Z</time></trkpt><trkpt lat="59.4551515114" lon="31.0870263632"><ele>53.49</ele><time>2026-09-02T14:47:50Z</time></trkpt><trkpt lat="59.4550824445" lon="31.0869142134"><ele>53.49</ele><time>2026-09-02T14:48:03Z</time></trkpt><trkpt lat="59.4550288841" lon="31.0868826974"><ele>53.49</ele><time>2026-09-02T14:48:13Z</time></trkpt><trkpt lat="59.4549997989" lon="31.0867990460"><ele>53.49</ele><time>2026-09-02T14:48:24Z</time></trkpt></trkseg></trk></gpx>